<?xml version="1.0" encoding="UTF-8" standalone="no" ?>
<gpx xmlns="http://www.topografix.com/GPX/1/1" xmlns:xsi="http://www.w3.org/2001/XMLSchema-instance" xsi:schemaLocation="http://www.topografix.com/GPX/1/1 http://www.topografix.com/GPX/1/1/gpx.xsd" version="1.1" creator="VisuGPX - https://www.visugpx.com">
  <metadata>
    <name>La Garde Adhemar</name>
    <desc><![CDATA[Balade autour de La Garde Adhemar en passant par le Val des Nymphes et les pierres de sacrifices]]></desc>
  </metadata>
  <trk>
    <name><![CDATA[2017-05-15 14:40:16]]></name>
    <trkseg>
      <trkpt lat="44.3944" lon="4.75364">
        <ele>192.88</ele>
        <time>2017-05-15T07:33:03Z</time>
      </trkpt>
      <trkpt lat="44.3944" lon="4.75364">
        <ele>192.88</ele>
        <time>2017-05-15T07:33:04Z</time>
      </trkpt>
      <trkpt lat="44.3944" lon="4.75364">
        <ele>179.42</ele>
        <time>2017-05-15T07:33:07Z</time>
      </trkpt>
      <trkpt lat="44.3944" lon="4.75364">
        <ele>179.42</ele>
        <time>2017-05-15T07:33:08Z</time>
      </trkpt>
      <trkpt lat="44.39439" lon="4.75363">
        <ele>179.9</ele>
        <time>2017-05-15T07:33:25Z</time>
      </trkpt>
      <trkpt lat="44.39441" lon="4.75362">
        <ele>180.38</ele>
        <time>2017-05-15T07:33:53Z</time>
      </trkpt>
      <trkpt lat="44.39443" lon="4.75358">
        <ele>180.38</ele>
        <time>2017-05-15T07:34:06Z</time>
      </trkpt>
      <trkpt lat="44.39441" lon="4.7536">
        <ele>178.46</ele>
        <time>2017-05-15T07:34:13Z</time>
      </trkpt>
      <trkpt lat="44.39438" lon="4.75364">
        <ele>178.46</ele>
        <time>2017-05-15T07:34:28Z</time>
      </trkpt>
      <trkpt lat="44.39432" lon="4.75363">
        <ele>178.46</ele>
        <time>2017-05-15T07:34:48Z</time>
      </trkpt>
      <trkpt lat="44.39436" lon="4.7537">
        <ele>178.46</ele>
        <time>2017-05-15T07:35:14Z</time>
      </trkpt>
      <trkpt lat="44.39426" lon="4.75369">
        <ele>178.46</ele>
        <time>2017-05-15T07:35:29Z</time>
      </trkpt>
      <trkpt lat="44.39414" lon="4.75376">
        <ele>178.46</ele>
        <time>2017-05-15T07:35:47Z</time>
      </trkpt>
      <trkpt lat="44.39415" lon="4.75396">
        <ele>180.38</ele>
        <time>2017-05-15T07:36:03Z</time>
      </trkpt>
      <trkpt lat="44.39415" lon="4.75412">
        <ele>181.35</ele>
        <time>2017-05-15T07:36:17Z</time>
      </trkpt>
      <trkpt lat="44.39412" lon="4.75424">
        <ele>181.35</ele>
        <time>2017-05-15T07:36:34Z</time>
      </trkpt>
      <trkpt lat="44.39413" lon="4.75428">
        <ele>181.35</ele>
        <time>2017-05-15T07:36:38Z</time>
      </trkpt>
      <trkpt lat="44.39414" lon="4.75439">
        <ele>181.35</ele>
        <time>2017-05-15T07:36:55Z</time>
      </trkpt>
      <trkpt lat="44.39413" lon="4.75445">
        <ele>180.38</ele>
        <time>2017-05-15T07:37:10Z</time>
      </trkpt>
      <trkpt lat="44.39413" lon="4.75447">
        <ele>180.38</ele>
        <time>2017-05-15T07:37:28Z</time>
      </trkpt>
      <trkpt lat="44.39414" lon="4.75448">
        <ele>179.9</ele>
        <time>2017-05-15T07:37:44Z</time>
      </trkpt>
      <trkpt lat="44.39415" lon="4.75448">
        <ele>180.38</ele>
        <time>2017-05-15T07:38:08Z</time>
      </trkpt>
      <trkpt lat="44.39415" lon="4.75447">
        <ele>180.38</ele>
        <time>2017-05-15T07:38:35Z</time>
      </trkpt>
      <trkpt lat="44.39415" lon="4.75447">
        <ele>181.83</ele>
        <time>2017-05-15T07:38:50Z</time>
      </trkpt>
      <trkpt lat="44.39415" lon="4.75447">
        <ele>180.38</ele>
        <time>2017-05-15T07:39:09Z</time>
      </trkpt>
      <trkpt lat="44.39416" lon="4.75447">
        <ele>179.42</ele>
        <time>2017-05-15T07:39:33Z</time>
      </trkpt>
      <trkpt lat="44.39416" lon="4.75448">
        <ele>180.87</ele>
        <time>2017-05-15T07:39:36Z</time>
      </trkpt>
      <trkpt lat="44.39417" lon="4.75448">
        <ele>179.42</ele>
        <time>2017-05-15T07:39:44Z</time>
      </trkpt>
      <trkpt lat="44.39417" lon="4.75449">
        <ele>179.9</ele>
        <time>2017-05-15T07:40:12Z</time>
      </trkpt>
      <trkpt lat="44.39417" lon="4.75445">
        <ele>181.35</ele>
        <time>2017-05-15T07:40:24Z</time>
      </trkpt>
      <trkpt lat="44.39414" lon="4.75445">
        <ele>180.38</ele>
        <time>2017-05-15T07:40:46Z</time>
      </trkpt>
      <trkpt lat="44.39415" lon="4.75446">
        <ele>180.38</ele>
        <time>2017-05-15T07:41:06Z</time>
      </trkpt>
      <trkpt lat="44.39415" lon="4.75445">
        <ele>183.27</ele>
        <time>2017-05-15T07:41:14Z</time>
      </trkpt>
      <trkpt lat="44.39415" lon="4.75445">
        <ele>181.83</ele>
        <time>2017-05-15T07:41:15Z</time>
      </trkpt>
      <trkpt lat="44.39415" lon="4.75442">
        <ele>181.35</ele>
        <time>2017-05-15T07:41:30Z</time>
      </trkpt>
      <trkpt lat="44.39415" lon="4.75435">
        <ele>181.35</ele>
        <time>2017-05-15T07:41:52Z</time>
      </trkpt>
      <trkpt lat="44.39416" lon="4.75427">
        <ele>180.38</ele>
        <time>2017-05-15T07:42:07Z</time>
      </trkpt>
      <trkpt lat="44.39414" lon="4.75419">
        <ele>181.83</ele>
        <time>2017-05-15T07:42:21Z</time>
      </trkpt>
      <trkpt lat="44.39415" lon="4.75415">
        <ele>181.83</ele>
        <time>2017-05-15T07:42:40Z</time>
      </trkpt>
      <trkpt lat="44.39415" lon="4.7541">
        <ele>181.83</ele>
        <time>2017-05-15T07:42:46Z</time>
      </trkpt>
      <trkpt lat="44.39413" lon="4.75393">
        <ele>181.83</ele>
        <time>2017-05-15T07:43:02Z</time>
      </trkpt>
      <trkpt lat="44.39412" lon="4.75379">
        <ele>180.38</ele>
        <time>2017-05-15T07:43:15Z</time>
      </trkpt>
      <trkpt lat="44.39413" lon="4.7536">
        <ele>179.9</ele>
        <time>2017-05-15T07:43:31Z</time>
      </trkpt>
      <trkpt lat="44.39409" lon="4.75334">
        <ele>178.46</ele>
        <time>2017-05-15T07:43:52Z</time>
      </trkpt>
      <trkpt lat="44.39407" lon="4.75325">
        <ele>177.98</ele>
        <time>2017-05-15T07:44:06Z</time>
      </trkpt>
      <trkpt lat="44.39404" lon="4.75316">
        <ele>175.58</ele>
        <time>2017-05-15T07:44:23Z</time>
      </trkpt>
      <trkpt lat="44.39402" lon="4.75306">
        <ele>173.66</ele>
        <time>2017-05-15T07:44:40Z</time>
      </trkpt>
      <trkpt lat="44.3941" lon="4.7531">
        <ele>167.41</ele>
        <time>2017-05-15T07:44:53Z</time>
      </trkpt>
      <trkpt lat="44.39411" lon="4.75311">
        <ele>176.06</ele>
        <time>2017-05-15T07:44:54Z</time>
      </trkpt>
      <trkpt lat="44.39412" lon="4.75311">
        <ele>171.25</ele>
        <time>2017-05-15T07:44:55Z</time>
      </trkpt>
      <trkpt lat="44.3942" lon="4.75321">
        <ele>171.25</ele>
        <time>2017-05-15T07:45:07Z</time>
      </trkpt>
      <trkpt lat="44.39431" lon="4.75329">
        <ele>171.25</ele>
        <time>2017-05-15T07:45:20Z</time>
      </trkpt>
      <trkpt lat="44.39438" lon="4.75334">
        <ele>172.21</ele>
        <time>2017-05-15T07:45:28Z</time>
      </trkpt>
      <trkpt lat="44.39453" lon="4.75343">
        <ele>172.21</ele>
        <time>2017-05-15T07:45:45Z</time>
      </trkpt>
      <trkpt lat="44.39469" lon="4.75351">
        <ele>171.73</ele>
        <time>2017-05-15T07:46:02Z</time>
      </trkpt>
      <trkpt lat="44.3948" lon="4.75357">
        <ele>171.73</ele>
        <time>2017-05-15T07:46:16Z</time>
      </trkpt>
      <trkpt lat="44.39496" lon="4.75361">
        <ele>171.73</ele>
        <time>2017-05-15T07:46:32Z</time>
      </trkpt>
      <trkpt lat="44.39511" lon="4.75371">
        <ele>172.21</ele>
        <time>2017-05-15T07:46:47Z</time>
      </trkpt>
      <trkpt lat="44.39523" lon="4.75382">
        <ele>173.17</ele>
        <time>2017-05-15T07:47:03Z</time>
      </trkpt>
      <trkpt lat="44.39536" lon="4.75397">
        <ele>175.58</ele>
        <time>2017-05-15T07:47:20Z</time>
      </trkpt>
      <trkpt lat="44.39544" lon="4.75402">
        <ele>175.58</ele>
        <time>2017-05-15T07:47:26Z</time>
      </trkpt>
      <trkpt lat="44.39548" lon="4.75404">
        <ele>176.06</ele>
        <time>2017-05-15T07:47:30Z</time>
      </trkpt>
      <trkpt lat="44.3955" lon="4.75406">
        <ele>176.06</ele>
        <time>2017-05-15T07:47:33Z</time>
      </trkpt>
      <trkpt lat="44.39572" lon="4.75415">
        <ele>176.54</ele>
        <time>2017-05-15T07:47:53Z</time>
      </trkpt>
      <trkpt lat="44.39589" lon="4.75417">
        <ele>177.02</ele>
        <time>2017-05-15T07:48:11Z</time>
      </trkpt>
      <trkpt lat="44.39601" lon="4.75422">
        <ele>177.98</ele>
        <time>2017-05-15T07:48:26Z</time>
      </trkpt>
      <trkpt lat="44.39615" lon="4.75434">
        <ele>178.94</ele>
        <time>2017-05-15T07:48:44Z</time>
      </trkpt>
      <trkpt lat="44.3963" lon="4.75446">
        <ele>179.42</ele>
        <time>2017-05-15T07:48:59Z</time>
      </trkpt>
      <trkpt lat="44.3965" lon="4.75456">
        <ele>180.87</ele>
        <time>2017-05-15T07:49:18Z</time>
      </trkpt>
      <trkpt lat="44.3966" lon="4.75464">
        <ele>181.83</ele>
        <time>2017-05-15T07:49:30Z</time>
      </trkpt>
      <trkpt lat="44.39665" lon="4.75468">
        <ele>181.83</ele>
        <time>2017-05-15T07:49:36Z</time>
      </trkpt>
      <trkpt lat="44.3967" lon="4.75471">
        <ele>180.87</ele>
        <time>2017-05-15T07:49:42Z</time>
      </trkpt>
      <trkpt lat="44.39682" lon="4.75479">
        <ele>182.31</ele>
        <time>2017-05-15T07:49:58Z</time>
      </trkpt>
      <trkpt lat="44.39684" lon="4.7548">
        <ele>182.79</ele>
        <time>2017-05-15T07:50:00Z</time>
      </trkpt>
      <trkpt lat="44.39695" lon="4.75489">
        <ele>183.27</ele>
        <time>2017-05-15T07:50:13Z</time>
      </trkpt>
      <trkpt lat="44.39714" lon="4.75496">
        <ele>181.83</ele>
        <time>2017-05-15T07:50:31Z</time>
      </trkpt>
      <trkpt lat="44.39735" lon="4.75503">
        <ele>180.38</ele>
        <time>2017-05-15T07:50:50Z</time>
      </trkpt>
      <trkpt lat="44.3974" lon="4.75503">
        <ele>180.38</ele>
        <time>2017-05-15T07:50:55Z</time>
      </trkpt>
      <trkpt lat="44.39746" lon="4.75503">
        <ele>179.9</ele>
        <time>2017-05-15T07:51:01Z</time>
      </trkpt>
      <trkpt lat="44.39768" lon="4.75494">
        <ele>178.46</ele>
        <time>2017-05-15T07:51:22Z</time>
      </trkpt>
      <trkpt lat="44.39778" lon="4.75492">
        <ele>177.98</ele>
        <time>2017-05-15T07:51:32Z</time>
      </trkpt>
      <trkpt lat="44.39785" lon="4.7549">
        <ele>177.5</ele>
        <time>2017-05-15T07:51:49Z</time>
      </trkpt>
      <trkpt lat="44.39798" lon="4.75489">
        <ele>177.02</ele>
        <time>2017-05-15T07:52:02Z</time>
      </trkpt>
      <trkpt lat="44.39822" lon="4.75494">
        <ele>176.06</ele>
        <time>2017-05-15T07:52:23Z</time>
      </trkpt>
      <trkpt lat="44.39843" lon="4.75496">
        <ele>175.1</ele>
        <time>2017-05-15T07:52:43Z</time>
      </trkpt>
      <trkpt lat="44.39862" lon="4.755">
        <ele>174.62</ele>
        <time>2017-05-15T07:53:02Z</time>
      </trkpt>
      <trkpt lat="44.39865" lon="4.75502">
        <ele>174.62</ele>
        <time>2017-05-15T07:53:05Z</time>
      </trkpt>
      <trkpt lat="44.39881" lon="4.75514">
        <ele>174.14</ele>
        <time>2017-05-15T07:53:24Z</time>
      </trkpt>
      <trkpt lat="44.39901" lon="4.7552">
        <ele>174.14</ele>
        <time>2017-05-15T07:53:40Z</time>
      </trkpt>
      <trkpt lat="44.39925" lon="4.75533">
        <ele>173.66</ele>
        <time>2017-05-15T07:54:01Z</time>
      </trkpt>
      <trkpt lat="44.39941" lon="4.75547">
        <ele>173.17</ele>
        <time>2017-05-15T07:54:19Z</time>
      </trkpt>
      <trkpt lat="44.39958" lon="4.7556">
        <ele>172.69</ele>
        <time>2017-05-15T07:54:38Z</time>
      </trkpt>
      <trkpt lat="44.39964" lon="4.75564">
        <ele>173.17</ele>
        <time>2017-05-15T07:54:46Z</time>
      </trkpt>
      <trkpt lat="44.39976" lon="4.75571">
        <ele>173.17</ele>
        <time>2017-05-15T07:55:02Z</time>
      </trkpt>
      <trkpt lat="44.39988" lon="4.75582">
        <ele>173.66</ele>
        <time>2017-05-15T07:55:18Z</time>
      </trkpt>
      <trkpt lat="44.39996" lon="4.75595">
        <ele>174.14</ele>
        <time>2017-05-15T07:55:33Z</time>
      </trkpt>
      <trkpt lat="44.4001" lon="4.75611">
        <ele>174.14</ele>
        <time>2017-05-15T07:55:48Z</time>
      </trkpt>
      <trkpt lat="44.40022" lon="4.75628">
        <ele>174.62</ele>
        <time>2017-05-15T07:56:03Z</time>
      </trkpt>
      <trkpt lat="44.40034" lon="4.7564">
        <ele>175.1</ele>
        <time>2017-05-15T07:56:20Z</time>
      </trkpt>
      <trkpt lat="44.40037" lon="4.75642">
        <ele>175.58</ele>
        <time>2017-05-15T07:56:22Z</time>
      </trkpt>
      <trkpt lat="44.40054" lon="4.75653">
        <ele>175.58</ele>
        <time>2017-05-15T07:56:36Z</time>
      </trkpt>
      <trkpt lat="44.40072" lon="4.75667">
        <ele>175.58</ele>
        <time>2017-05-15T07:56:55Z</time>
      </trkpt>
      <trkpt lat="44.40093" lon="4.75681">
        <ele>175.58</ele>
        <time>2017-05-15T07:57:14Z</time>
      </trkpt>
      <trkpt lat="44.40106" lon="4.75697">
        <ele>175.1</ele>
        <time>2017-05-15T07:57:32Z</time>
      </trkpt>
      <trkpt lat="44.4012" lon="4.75703">
        <ele>175.1</ele>
        <time>2017-05-15T07:57:49Z</time>
      </trkpt>
      <trkpt lat="44.40125" lon="4.75709">
        <ele>176.06</ele>
        <time>2017-05-15T07:57:56Z</time>
      </trkpt>
      <trkpt lat="44.40141" lon="4.75725">
        <ele>176.06</ele>
        <time>2017-05-15T07:58:14Z</time>
      </trkpt>
      <trkpt lat="44.40155" lon="4.75739">
        <ele>177.5</ele>
        <time>2017-05-15T07:58:28Z</time>
      </trkpt>
      <trkpt lat="44.40171" lon="4.75762">
        <ele>178.94</ele>
        <time>2017-05-15T07:58:46Z</time>
      </trkpt>
      <trkpt lat="44.40184" lon="4.75786">
        <ele>180.38</ele>
        <time>2017-05-15T07:59:07Z</time>
      </trkpt>
      <trkpt lat="44.40195" lon="4.75807">
        <ele>181.35</ele>
        <time>2017-05-15T07:59:25Z</time>
      </trkpt>
      <trkpt lat="44.40204" lon="4.75822">
        <ele>181.83</ele>
        <time>2017-05-15T07:59:41Z</time>
      </trkpt>
      <trkpt lat="44.40214" lon="4.75837">
        <ele>182.31</ele>
        <time>2017-05-15T07:59:57Z</time>
      </trkpt>
      <trkpt lat="44.4023" lon="4.75856">
        <ele>183.27</ele>
        <time>2017-05-15T08:00:14Z</time>
      </trkpt>
      <trkpt lat="44.40241" lon="4.75867">
        <ele>184.23</ele>
        <time>2017-05-15T08:00:26Z</time>
      </trkpt>
      <trkpt lat="44.40256" lon="4.75876">
        <ele>186.15</ele>
        <time>2017-05-15T08:00:41Z</time>
      </trkpt>
      <trkpt lat="44.40268" lon="4.75883">
        <ele>185.67</ele>
        <time>2017-05-15T08:00:56Z</time>
      </trkpt>
      <trkpt lat="44.40286" lon="4.75895">
        <ele>186.15</ele>
        <time>2017-05-15T08:01:15Z</time>
      </trkpt>
      <trkpt lat="44.40292" lon="4.75897">
        <ele>185.19</ele>
        <time>2017-05-15T08:01:29Z</time>
      </trkpt>
      <trkpt lat="44.40292" lon="4.75895">
        <ele>185.19</ele>
        <time>2017-05-15T08:01:47Z</time>
      </trkpt>
      <trkpt lat="44.40292" lon="4.759">
        <ele>185.19</ele>
        <time>2017-05-15T08:02:10Z</time>
      </trkpt>
      <trkpt lat="44.40292" lon="4.75899">
        <ele>184.71</ele>
        <time>2017-05-15T08:02:24Z</time>
      </trkpt>
      <trkpt lat="44.40292" lon="4.75895">
        <ele>184.71</ele>
        <time>2017-05-15T08:02:44Z</time>
      </trkpt>
      <trkpt lat="44.40291" lon="4.75895">
        <ele>184.71</ele>
        <time>2017-05-15T08:03:07Z</time>
      </trkpt>
      <trkpt lat="44.40292" lon="4.759">
        <ele>184.71</ele>
        <time>2017-05-15T08:03:21Z</time>
      </trkpt>
      <trkpt lat="44.40293" lon="4.759">
        <ele>184.71</ele>
        <time>2017-05-15T08:03:41Z</time>
      </trkpt>
      <trkpt lat="44.40293" lon="4.759">
        <ele>180.38</ele>
        <time>2017-05-15T08:03:43Z</time>
      </trkpt>
      <trkpt lat="44.40293" lon="4.759">
        <ele>190.48</ele>
        <time>2017-05-15T08:03:44Z</time>
      </trkpt>
      <trkpt lat="44.40292" lon="4.759">
        <ele>185.19</ele>
        <time>2017-05-15T08:03:45Z</time>
      </trkpt>
      <trkpt lat="44.40298" lon="4.75902">
        <ele>185.19</ele>
        <time>2017-05-15T08:04:00Z</time>
      </trkpt>
      <trkpt lat="44.40308" lon="4.75919">
        <ele>183.75</ele>
        <time>2017-05-15T08:04:17Z</time>
      </trkpt>
      <trkpt lat="44.40324" lon="4.75937">
        <ele>182.79</ele>
        <time>2017-05-15T08:04:38Z</time>
      </trkpt>
      <trkpt lat="44.40339" lon="4.75953">
        <ele>181.83</ele>
        <time>2017-05-15T08:04:56Z</time>
      </trkpt>
      <trkpt lat="44.40351" lon="4.75972">
        <ele>181.83</ele>
        <time>2017-05-15T08:05:12Z</time>
      </trkpt>
      <trkpt lat="44.40364" lon="4.75996">
        <ele>181.35</ele>
        <time>2017-05-15T08:05:30Z</time>
      </trkpt>
      <trkpt lat="44.40374" lon="4.76023">
        <ele>180.38</ele>
        <time>2017-05-15T08:05:49Z</time>
      </trkpt>
      <trkpt lat="44.40379" lon="4.76042">
        <ele>179.9</ele>
        <time>2017-05-15T08:06:03Z</time>
      </trkpt>
      <trkpt lat="44.40385" lon="4.76069">
        <ele>179.42</ele>
        <time>2017-05-15T08:06:22Z</time>
      </trkpt>
      <trkpt lat="44.4039" lon="4.76092">
        <ele>178.94</ele>
        <time>2017-05-15T08:06:42Z</time>
      </trkpt>
      <trkpt lat="44.40398" lon="4.76114">
        <ele>178.94</ele>
        <time>2017-05-15T08:07:01Z</time>
      </trkpt>
      <trkpt lat="44.40407" lon="4.76133">
        <ele>177.98</ele>
        <time>2017-05-15T08:07:19Z</time>
      </trkpt>
      <trkpt lat="44.40414" lon="4.76155">
        <ele>177.5</ele>
        <time>2017-05-15T08:07:35Z</time>
      </trkpt>
      <trkpt lat="44.4042" lon="4.76179">
        <ele>176.54</ele>
        <time>2017-05-15T08:07:52Z</time>
      </trkpt>
      <trkpt lat="44.40425" lon="4.76199">
        <ele>176.06</ele>
        <time>2017-05-15T08:08:06Z</time>
      </trkpt>
      <trkpt lat="44.40427" lon="4.76229">
        <ele>175.1</ele>
        <time>2017-05-15T08:08:23Z</time>
      </trkpt>
      <trkpt lat="44.40433" lon="4.76267">
        <ele>174.62</ele>
        <time>2017-05-15T08:08:41Z</time>
      </trkpt>
      <trkpt lat="44.40436" lon="4.76294">
        <ele>174.62</ele>
        <time>2017-05-15T08:08:57Z</time>
      </trkpt>
      <trkpt lat="44.40442" lon="4.76313">
        <ele>174.14</ele>
        <time>2017-05-15T08:09:14Z</time>
      </trkpt>
      <trkpt lat="44.40452" lon="4.76336">
        <ele>173.66</ele>
        <time>2017-05-15T08:09:32Z</time>
      </trkpt>
      <trkpt lat="44.40459" lon="4.76353">
        <ele>172.69</ele>
        <time>2017-05-15T08:09:47Z</time>
      </trkpt>
      <trkpt lat="44.40468" lon="4.7638">
        <ele>172.69</ele>
        <time>2017-05-15T08:10:03Z</time>
      </trkpt>
      <trkpt lat="44.40476" lon="4.76402">
        <ele>171.73</ele>
        <time>2017-05-15T08:10:21Z</time>
      </trkpt>
      <trkpt lat="44.40482" lon="4.76419">
        <ele>171.25</ele>
        <time>2017-05-15T08:10:35Z</time>
      </trkpt>
      <trkpt lat="44.40487" lon="4.76435">
        <ele>171.25</ele>
        <time>2017-05-15T08:10:48Z</time>
      </trkpt>
      <trkpt lat="44.40498" lon="4.76452">
        <ele>170.29</ele>
        <time>2017-05-15T08:11:03Z</time>
      </trkpt>
      <trkpt lat="44.40509" lon="4.76477">
        <ele>168.85</ele>
        <time>2017-05-15T08:11:18Z</time>
      </trkpt>
      <trkpt lat="44.40524" lon="4.76501">
        <ele>168.37</ele>
        <time>2017-05-15T08:11:37Z</time>
      </trkpt>
      <trkpt lat="44.40543" lon="4.76511">
        <ele>167.89</ele>
        <time>2017-05-15T08:11:56Z</time>
      </trkpt>
      <trkpt lat="44.40561" lon="4.76524">
        <ele>167.41</ele>
        <time>2017-05-15T08:12:13Z</time>
      </trkpt>
      <trkpt lat="44.40572" lon="4.76548">
        <ele>166.93</ele>
        <time>2017-05-15T08:12:33Z</time>
      </trkpt>
      <trkpt lat="44.40569" lon="4.76565">
        <ele>166.45</ele>
        <time>2017-05-15T08:12:49Z</time>
      </trkpt>
      <trkpt lat="44.40565" lon="4.76585">
        <ele>165.48</ele>
        <time>2017-05-15T08:13:06Z</time>
      </trkpt>
      <trkpt lat="44.40557" lon="4.76608">
        <ele>165.48</ele>
        <time>2017-05-15T08:13:20Z</time>
      </trkpt>
      <trkpt lat="44.40556" lon="4.76625">
        <ele>166.45</ele>
        <time>2017-05-15T08:13:28Z</time>
      </trkpt>
      <trkpt lat="44.40559" lon="4.7664">
        <ele>165.48</ele>
        <time>2017-05-15T08:13:41Z</time>
      </trkpt>
      <trkpt lat="44.4056" lon="4.76641">
        <ele>165.48</ele>
        <time>2017-05-15T08:13:42Z</time>
      </trkpt>
      <trkpt lat="44.40558" lon="4.76668">
        <ele>165</ele>
        <time>2017-05-15T08:13:58Z</time>
      </trkpt>
      <trkpt lat="44.40557" lon="4.76686">
        <ele>165</ele>
        <time>2017-05-15T08:14:10Z</time>
      </trkpt>
      <trkpt lat="44.40557" lon="4.767">
        <ele>165.96</ele>
        <time>2017-05-15T08:14:19Z</time>
      </trkpt>
      <trkpt lat="44.40555" lon="4.76706">
        <ele>165</ele>
        <time>2017-05-15T08:14:28Z</time>
      </trkpt>
      <trkpt lat="44.40555" lon="4.76708">
        <ele>165.48</ele>
        <time>2017-05-15T08:14:34Z</time>
      </trkpt>
      <trkpt lat="44.40553" lon="4.7671">
        <ele>164.52</ele>
        <time>2017-05-15T08:14:49Z</time>
      </trkpt>
      <trkpt lat="44.4055" lon="4.76714">
        <ele>164.52</ele>
        <time>2017-05-15T08:15:05Z</time>
      </trkpt>
      <trkpt lat="44.4055" lon="4.76716">
        <ele>164.52</ele>
        <time>2017-05-15T08:15:23Z</time>
      </trkpt>
      <trkpt lat="44.4055" lon="4.76712">
        <ele>165</ele>
        <time>2017-05-15T08:15:55Z</time>
      </trkpt>
      <trkpt lat="44.40548" lon="4.7673">
        <ele>165</ele>
        <time>2017-05-15T08:16:11Z</time>
      </trkpt>
      <trkpt lat="44.40546" lon="4.7675">
        <ele>165</ele>
        <time>2017-05-15T08:16:27Z</time>
      </trkpt>
      <trkpt lat="44.40541" lon="4.76774">
        <ele>165</ele>
        <time>2017-05-15T08:16:44Z</time>
      </trkpt>
      <trkpt lat="44.40537" lon="4.76801">
        <ele>165.96</ele>
        <time>2017-05-15T08:17:02Z</time>
      </trkpt>
      <trkpt lat="44.40528" lon="4.76822">
        <ele>165.96</ele>
        <time>2017-05-15T08:17:19Z</time>
      </trkpt>
      <trkpt lat="44.40524" lon="4.76829">
        <ele>165.96</ele>
        <time>2017-05-15T08:17:25Z</time>
      </trkpt>
      <trkpt lat="44.40514" lon="4.76852">
        <ele>165.96</ele>
        <time>2017-05-15T08:17:42Z</time>
      </trkpt>
      <trkpt lat="44.40505" lon="4.76875">
        <ele>165.96</ele>
        <time>2017-05-15T08:17:58Z</time>
      </trkpt>
      <trkpt lat="44.40492" lon="4.76891">
        <ele>165.96</ele>
        <time>2017-05-15T08:18:14Z</time>
      </trkpt>
      <trkpt lat="44.40482" lon="4.76905">
        <ele>165.96</ele>
        <time>2017-05-15T08:18:30Z</time>
      </trkpt>
      <trkpt lat="44.40474" lon="4.76924">
        <ele>165.48</ele>
        <time>2017-05-15T08:18:45Z</time>
      </trkpt>
      <trkpt lat="44.40468" lon="4.76945">
        <ele>165.48</ele>
        <time>2017-05-15T08:19:01Z</time>
      </trkpt>
      <trkpt lat="44.40465" lon="4.7697">
        <ele>165</ele>
        <time>2017-05-15T08:19:19Z</time>
      </trkpt>
      <trkpt lat="44.40465" lon="4.76983">
        <ele>165.96</ele>
        <time>2017-05-15T08:19:29Z</time>
      </trkpt>
      <trkpt lat="44.40464" lon="4.77004">
        <ele>166.45</ele>
        <time>2017-05-15T08:19:46Z</time>
      </trkpt>
      <trkpt lat="44.40462" lon="4.77031">
        <ele>166.45</ele>
        <time>2017-05-15T08:20:03Z</time>
      </trkpt>
      <trkpt lat="44.40461" lon="4.77058">
        <ele>166.93</ele>
        <time>2017-05-15T08:20:20Z</time>
      </trkpt>
      <trkpt lat="44.40458" lon="4.77093">
        <ele>167.89</ele>
        <time>2017-05-15T08:20:39Z</time>
      </trkpt>
      <trkpt lat="44.40447" lon="4.77112">
        <ele>168.37</ele>
        <time>2017-05-15T08:20:56Z</time>
      </trkpt>
      <trkpt lat="44.40432" lon="4.77123">
        <ele>168.37</ele>
        <time>2017-05-15T08:21:13Z</time>
      </trkpt>
      <trkpt lat="44.40418" lon="4.77129">
        <ele>169.81</ele>
        <time>2017-05-15T08:21:29Z</time>
      </trkpt>
      <trkpt lat="44.40403" lon="4.77136">
        <ele>170.77</ele>
        <time>2017-05-15T08:21:46Z</time>
      </trkpt>
      <trkpt lat="44.40383" lon="4.77147">
        <ele>171.25</ele>
        <time>2017-05-15T08:22:05Z</time>
      </trkpt>
      <trkpt lat="44.40366" lon="4.77163">
        <ele>172.21</ele>
        <time>2017-05-15T08:22:23Z</time>
      </trkpt>
      <trkpt lat="44.40359" lon="4.77178">
        <ele>172.21</ele>
        <time>2017-05-15T08:22:34Z</time>
      </trkpt>
      <trkpt lat="44.40348" lon="4.77209">
        <ele>173.66</ele>
        <time>2017-05-15T08:22:56Z</time>
      </trkpt>
      <trkpt lat="44.40339" lon="4.77233">
        <ele>174.62</ele>
        <time>2017-05-15T08:23:14Z</time>
      </trkpt>
      <trkpt lat="44.4033" lon="4.77254">
        <ele>174.62</ele>
        <time>2017-05-15T08:23:31Z</time>
      </trkpt>
      <trkpt lat="44.4032" lon="4.7728">
        <ele>175.1</ele>
        <time>2017-05-15T08:23:51Z</time>
      </trkpt>
      <trkpt lat="44.40317" lon="4.77292">
        <ele>175.1</ele>
        <time>2017-05-15T08:24:07Z</time>
      </trkpt>
      <trkpt lat="44.40317" lon="4.77294">
        <ele>175.1</ele>
        <time>2017-05-15T08:24:23Z</time>
      </trkpt>
      <trkpt lat="44.40317" lon="4.77296">
        <ele>174.62</ele>
        <time>2017-05-15T08:24:40Z</time>
      </trkpt>
      <trkpt lat="44.40318" lon="4.77296">
        <ele>169.33</ele>
        <time>2017-05-15T08:24:44Z</time>
      </trkpt>
      <trkpt lat="44.40319" lon="4.77296">
        <ele>179.42</ele>
        <time>2017-05-15T08:24:45Z</time>
      </trkpt>
      <trkpt lat="44.40319" lon="4.77296">
        <ele>173.66</ele>
        <time>2017-05-15T08:24:46Z</time>
      </trkpt>
      <trkpt lat="44.40317" lon="4.77296">
        <ele>173.17</ele>
        <time>2017-05-15T08:25:04Z</time>
      </trkpt>
      <trkpt lat="44.40314" lon="4.77297">
        <ele>173.17</ele>
        <time>2017-05-15T08:25:24Z</time>
      </trkpt>
      <trkpt lat="44.40313" lon="4.77296">
        <ele>173.66</ele>
        <time>2017-05-15T08:25:57Z</time>
      </trkpt>
      <trkpt lat="44.40314" lon="4.77297">
        <ele>175.1</ele>
        <time>2017-05-15T08:26:13Z</time>
      </trkpt>
      <trkpt lat="44.40313" lon="4.77299">
        <ele>174.62</ele>
        <time>2017-05-15T08:26:40Z</time>
      </trkpt>
      <trkpt lat="44.40313" lon="4.77299">
        <ele>174.62</ele>
        <time>2017-05-15T08:26:56Z</time>
      </trkpt>
      <trkpt lat="44.40313" lon="4.77298">
        <ele>175.1</ele>
        <time>2017-05-15T08:27:20Z</time>
      </trkpt>
      <trkpt lat="44.40311" lon="4.77298">
        <ele>175.1</ele>
        <time>2017-05-15T08:27:47Z</time>
      </trkpt>
      <trkpt lat="44.40313" lon="4.77298">
        <ele>174.14</ele>
        <time>2017-05-15T08:28:16Z</time>
      </trkpt>
      <trkpt lat="44.40311" lon="4.77299">
        <ele>174.62</ele>
        <time>2017-05-15T08:28:52Z</time>
      </trkpt>
      <trkpt lat="44.40313" lon="4.773">
        <ele>174.62</ele>
        <time>2017-05-15T08:29:27Z</time>
      </trkpt>
      <trkpt lat="44.40313" lon="4.77301">
        <ele>175.1</ele>
        <time>2017-05-15T08:29:50Z</time>
      </trkpt>
      <trkpt lat="44.40312" lon="4.77302">
        <ele>175.1</ele>
        <time>2017-05-15T08:30:20Z</time>
      </trkpt>
      <trkpt lat="44.40312" lon="4.77303">
        <ele>175.1</ele>
        <time>2017-05-15T08:30:44Z</time>
      </trkpt>
      <trkpt lat="44.40312" lon="4.77299">
        <ele>176.54</ele>
        <time>2017-05-15T08:31:06Z</time>
      </trkpt>
      <trkpt lat="44.40312" lon="4.77299">
        <ele>175.58</ele>
        <time>2017-05-15T08:31:20Z</time>
      </trkpt>
      <trkpt lat="44.40313" lon="4.77298">
        <ele>177.02</ele>
        <time>2017-05-15T08:31:55Z</time>
      </trkpt>
      <trkpt lat="44.40313" lon="4.773">
        <ele>177.02</ele>
        <time>2017-05-15T08:32:15Z</time>
      </trkpt>
      <trkpt lat="44.40313" lon="4.77299">
        <ele>177.02</ele>
        <time>2017-05-15T08:32:44Z</time>
      </trkpt>
      <trkpt lat="44.40315" lon="4.77297">
        <ele>177.5</ele>
        <time>2017-05-15T08:33:06Z</time>
      </trkpt>
      <trkpt lat="44.40312" lon="4.77299">
        <ele>177.5</ele>
        <time>2017-05-15T08:33:47Z</time>
      </trkpt>
      <trkpt lat="44.40315" lon="4.77299">
        <ele>177.98</ele>
        <time>2017-05-15T08:34:23Z</time>
      </trkpt>
      <trkpt lat="44.40316" lon="4.77296">
        <ele>178.46</ele>
        <time>2017-05-15T08:34:57Z</time>
      </trkpt>
      <trkpt lat="44.40315" lon="4.77296">
        <ele>178.46</ele>
        <time>2017-05-15T08:35:29Z</time>
      </trkpt>
      <trkpt lat="44.40316" lon="4.77299">
        <ele>178.46</ele>
        <time>2017-05-15T08:36:07Z</time>
      </trkpt>
      <trkpt lat="44.40316" lon="4.77298">
        <ele>179.42</ele>
        <time>2017-05-15T08:36:32Z</time>
      </trkpt>
      <trkpt lat="44.40317" lon="4.77299">
        <ele>179.42</ele>
        <time>2017-05-15T08:36:51Z</time>
      </trkpt>
      <trkpt lat="44.40318" lon="4.77299">
        <ele>178.46</ele>
        <time>2017-05-15T08:37:12Z</time>
      </trkpt>
      <trkpt lat="44.4032" lon="4.77297">
        <ele>179.9</ele>
        <time>2017-05-15T08:37:18Z</time>
      </trkpt>
      <trkpt lat="44.4032" lon="4.77297">
        <ele>175.58</ele>
        <time>2017-05-15T08:37:19Z</time>
      </trkpt>
      <trkpt lat="44.40321" lon="4.77297">
        <ele>184.71</ele>
        <time>2017-05-15T08:37:20Z</time>
      </trkpt>
      <trkpt lat="44.40321" lon="4.77297">
        <ele>179.9</ele>
        <time>2017-05-15T08:37:21Z</time>
      </trkpt>
      <trkpt lat="44.40318" lon="4.77295">
        <ele>179.42</ele>
        <time>2017-05-15T08:37:42Z</time>
      </trkpt>
      <trkpt lat="44.40321" lon="4.77301">
        <ele>178.94</ele>
        <time>2017-05-15T08:38:03Z</time>
      </trkpt>
      <trkpt lat="44.4032" lon="4.77309">
        <ele>178.94</ele>
        <time>2017-05-15T08:38:21Z</time>
      </trkpt>
      <trkpt lat="44.40321" lon="4.77326">
        <ele>178.94</ele>
        <time>2017-05-15T08:38:37Z</time>
      </trkpt>
      <trkpt lat="44.40321" lon="4.77339">
        <ele>180.38</ele>
        <time>2017-05-15T08:38:47Z</time>
      </trkpt>
      <trkpt lat="44.40321" lon="4.77349">
        <ele>178.94</ele>
        <time>2017-05-15T08:38:54Z</time>
      </trkpt>
      <trkpt lat="44.40322" lon="4.77352">
        <ele>180.87</ele>
        <time>2017-05-15T08:38:56Z</time>
      </trkpt>
      <trkpt lat="44.40326" lon="4.77371">
        <ele>178.94</ele>
        <time>2017-05-15T08:39:10Z</time>
      </trkpt>
      <trkpt lat="44.40328" lon="4.77394">
        <ele>177.5</ele>
        <time>2017-05-15T08:39:27Z</time>
      </trkpt>
      <trkpt lat="44.40321" lon="4.77418">
        <ele>177.02</ele>
        <time>2017-05-15T08:39:44Z</time>
      </trkpt>
      <trkpt lat="44.40327" lon="4.77435">
        <ele>176.54</ele>
        <time>2017-05-15T08:39:58Z</time>
      </trkpt>
      <trkpt lat="44.40339" lon="4.7746">
        <ele>176.54</ele>
        <time>2017-05-15T08:40:19Z</time>
      </trkpt>
      <trkpt lat="44.40348" lon="4.77475">
        <ele>176.54</ele>
        <time>2017-05-15T08:40:32Z</time>
      </trkpt>
      <trkpt lat="44.40362" lon="4.77493">
        <ele>176.06</ele>
        <time>2017-05-15T08:40:50Z</time>
      </trkpt>
      <trkpt lat="44.40373" lon="4.77511">
        <ele>177.02</ele>
        <time>2017-05-15T08:41:07Z</time>
      </trkpt>
      <trkpt lat="44.40386" lon="4.77533">
        <ele>177.02</ele>
        <time>2017-05-15T08:41:26Z</time>
      </trkpt>
      <trkpt lat="44.40398" lon="4.77557">
        <ele>175.58</ele>
        <time>2017-05-15T08:41:46Z</time>
      </trkpt>
      <trkpt lat="44.40412" lon="4.77583">
        <ele>175.1</ele>
        <time>2017-05-15T08:42:06Z</time>
      </trkpt>
      <trkpt lat="44.40423" lon="4.77604">
        <ele>175.1</ele>
        <time>2017-05-15T08:42:24Z</time>
      </trkpt>
      <trkpt lat="44.40434" lon="4.77634">
        <ele>175.1</ele>
        <time>2017-05-15T08:42:46Z</time>
      </trkpt>
      <trkpt lat="44.40435" lon="4.77637">
        <ele>175.1</ele>
        <time>2017-05-15T08:42:48Z</time>
      </trkpt>
      <trkpt lat="44.40442" lon="4.77669">
        <ele>174.62</ele>
        <time>2017-05-15T08:43:08Z</time>
      </trkpt>
      <trkpt lat="44.40453" lon="4.7769">
        <ele>174.62</ele>
        <time>2017-05-15T08:43:25Z</time>
      </trkpt>
      <trkpt lat="44.4046" lon="4.77705">
        <ele>174.62</ele>
        <time>2017-05-15T08:43:37Z</time>
      </trkpt>
      <trkpt lat="44.4046" lon="4.77732">
        <ele>174.14</ele>
        <time>2017-05-15T08:43:53Z</time>
      </trkpt>
      <trkpt lat="44.40457" lon="4.77758">
        <ele>173.66</ele>
        <time>2017-05-15T08:44:11Z</time>
      </trkpt>
      <trkpt lat="44.40454" lon="4.77784">
        <ele>173.66</ele>
        <time>2017-05-15T08:44:29Z</time>
      </trkpt>
      <trkpt lat="44.40451" lon="4.77808">
        <ele>173.66</ele>
        <time>2017-05-15T08:44:45Z</time>
      </trkpt>
      <trkpt lat="44.40454" lon="4.77823">
        <ele>173.66</ele>
        <time>2017-05-15T08:44:55Z</time>
      </trkpt>
      <trkpt lat="44.40457" lon="4.77848">
        <ele>173.17</ele>
        <time>2017-05-15T08:45:11Z</time>
      </trkpt>
      <trkpt lat="44.40457" lon="4.77853">
        <ele>173.17</ele>
        <time>2017-05-15T08:45:14Z</time>
      </trkpt>
      <trkpt lat="44.40458" lon="4.7787">
        <ele>173.66</ele>
        <time>2017-05-15T08:45:24Z</time>
      </trkpt>
      <trkpt lat="44.40459" lon="4.77872">
        <ele>173.66</ele>
        <time>2017-05-15T08:45:25Z</time>
      </trkpt>
      <trkpt lat="44.40459" lon="4.77873">
        <ele>173.66</ele>
        <time>2017-05-15T08:45:26Z</time>
      </trkpt>
      <trkpt lat="44.4046" lon="4.77875">
        <ele>172.69</ele>
        <time>2017-05-15T08:45:27Z</time>
      </trkpt>
      <trkpt lat="44.40463" lon="4.77883">
        <ele>173.17</ele>
        <time>2017-05-15T08:45:33Z</time>
      </trkpt>
      <trkpt lat="44.40468" lon="4.7791">
        <ele>173.17</ele>
        <time>2017-05-15T08:45:52Z</time>
      </trkpt>
      <trkpt lat="44.40475" lon="4.77939">
        <ele>172.21</ele>
        <time>2017-05-15T08:46:10Z</time>
      </trkpt>
      <trkpt lat="44.40489" lon="4.77968">
        <ele>173.66</ele>
        <time>2017-05-15T08:46:32Z</time>
      </trkpt>
      <trkpt lat="44.40489" lon="4.77984">
        <ele>171.25</ele>
        <time>2017-05-15T08:46:44Z</time>
      </trkpt>
      <trkpt lat="44.40488" lon="4.77986">
        <ele>173.66</ele>
        <time>2017-05-15T08:46:45Z</time>
      </trkpt>
      <trkpt lat="44.40487" lon="4.77987">
        <ele>174.14</ele>
        <time>2017-05-15T08:46:47Z</time>
      </trkpt>
      <trkpt lat="44.40487" lon="4.77988">
        <ele>173.66</ele>
        <time>2017-05-15T08:46:48Z</time>
      </trkpt>
      <trkpt lat="44.40486" lon="4.7799">
        <ele>173.66</ele>
        <time>2017-05-15T08:46:49Z</time>
      </trkpt>
      <trkpt lat="44.40472" lon="4.78013">
        <ele>172.69</ele>
        <time>2017-05-15T08:47:09Z</time>
      </trkpt>
      <trkpt lat="44.40472" lon="4.78017">
        <ele>174.14</ele>
        <time>2017-05-15T08:47:11Z</time>
      </trkpt>
      <trkpt lat="44.40471" lon="4.78027">
        <ele>172.69</ele>
        <time>2017-05-15T08:47:22Z</time>
      </trkpt>
      <trkpt lat="44.4047" lon="4.78029">
        <ele>173.66</ele>
        <time>2017-05-15T08:47:33Z</time>
      </trkpt>
      <trkpt lat="44.4047" lon="4.7803">
        <ele>173.17</ele>
        <time>2017-05-15T08:47:49Z</time>
      </trkpt>
      <trkpt lat="44.40469" lon="4.78036">
        <ele>174.14</ele>
        <time>2017-05-15T08:48:04Z</time>
      </trkpt>
      <trkpt lat="44.40457" lon="4.78046">
        <ele>172.69</ele>
        <time>2017-05-15T08:48:19Z</time>
      </trkpt>
      <trkpt lat="44.40449" lon="4.78046">
        <ele>172.69</ele>
        <time>2017-05-15T08:48:27Z</time>
      </trkpt>
      <trkpt lat="44.4044" lon="4.78044">
        <ele>172.21</ele>
        <time>2017-05-15T08:48:43Z</time>
      </trkpt>
      <trkpt lat="44.40435" lon="4.78049">
        <ele>171.73</ele>
        <time>2017-05-15T08:49:00Z</time>
      </trkpt>
      <trkpt lat="44.40435" lon="4.78049">
        <ele>171.25</ele>
        <time>2017-05-15T08:49:14Z</time>
      </trkpt>
      <trkpt lat="44.40427" lon="4.78053">
        <ele>172.21</ele>
        <time>2017-05-15T08:49:25Z</time>
      </trkpt>
      <trkpt lat="44.40427" lon="4.78055">
        <ele>169.33</ele>
        <time>2017-05-15T08:49:27Z</time>
      </trkpt>
      <trkpt lat="44.40424" lon="4.78057">
        <ele>170.77</ele>
        <time>2017-05-15T08:49:30Z</time>
      </trkpt>
      <trkpt lat="44.40407" lon="4.78064">
        <ele>171.73</ele>
        <time>2017-05-15T08:49:48Z</time>
      </trkpt>
      <trkpt lat="44.404" lon="4.78069">
        <ele>170.29</ele>
        <time>2017-05-15T08:49:55Z</time>
      </trkpt>
      <trkpt lat="44.40398" lon="4.78069">
        <ele>172.21</ele>
        <time>2017-05-15T08:49:56Z</time>
      </trkpt>
      <trkpt lat="44.40393" lon="4.78072">
        <ele>171.25</ele>
        <time>2017-05-15T08:50:00Z</time>
      </trkpt>
      <trkpt lat="44.4039" lon="4.78075">
        <ele>172.21</ele>
        <time>2017-05-15T08:50:03Z</time>
      </trkpt>
      <trkpt lat="44.40388" lon="4.78076">
        <ele>171.25</ele>
        <time>2017-05-15T08:50:05Z</time>
      </trkpt>
      <trkpt lat="44.40367" lon="4.78087">
        <ele>172.69</ele>
        <time>2017-05-15T08:50:23Z</time>
      </trkpt>
      <trkpt lat="44.40346" lon="4.78095">
        <ele>172.69</ele>
        <time>2017-05-15T08:50:43Z</time>
      </trkpt>
      <trkpt lat="44.40333" lon="4.78096">
        <ele>171.73</ele>
        <time>2017-05-15T08:50:56Z</time>
      </trkpt>
      <trkpt lat="44.40312" lon="4.78097">
        <ele>171.73</ele>
        <time>2017-05-15T08:51:14Z</time>
      </trkpt>
      <trkpt lat="44.40292" lon="4.78106">
        <ele>171.73</ele>
        <time>2017-05-15T08:51:33Z</time>
      </trkpt>
      <trkpt lat="44.40284" lon="4.78112">
        <ele>173.17</ele>
        <time>2017-05-15T08:51:42Z</time>
      </trkpt>
      <trkpt lat="44.40271" lon="4.78114">
        <ele>173.66</ele>
        <time>2017-05-15T08:51:56Z</time>
      </trkpt>
      <trkpt lat="44.40257" lon="4.78116">
        <ele>173.66</ele>
        <time>2017-05-15T08:52:11Z</time>
      </trkpt>
      <trkpt lat="44.40252" lon="4.78119">
        <ele>173.66</ele>
        <time>2017-05-15T08:52:23Z</time>
      </trkpt>
      <trkpt lat="44.40242" lon="4.78119">
        <ele>173.66</ele>
        <time>2017-05-15T08:52:42Z</time>
      </trkpt>
      <trkpt lat="44.40236" lon="4.78115">
        <ele>171.73</ele>
        <time>2017-05-15T08:52:56Z</time>
      </trkpt>
      <trkpt lat="44.40242" lon="4.78118">
        <ele>173.66</ele>
        <time>2017-05-15T08:53:08Z</time>
      </trkpt>
      <trkpt lat="44.40243" lon="4.78126">
        <ele>173.66</ele>
        <time>2017-05-15T08:53:24Z</time>
      </trkpt>
      <trkpt lat="44.40243" lon="4.7814">
        <ele>173.66</ele>
        <time>2017-05-15T08:53:41Z</time>
      </trkpt>
      <trkpt lat="44.40247" lon="4.78154">
        <ele>175.1</ele>
        <time>2017-05-15T08:53:57Z</time>
      </trkpt>
      <trkpt lat="44.40245" lon="4.78165">
        <ele>175.1</ele>
        <time>2017-05-15T08:54:11Z</time>
      </trkpt>
      <trkpt lat="44.40238" lon="4.78163">
        <ele>175.1</ele>
        <time>2017-05-15T08:54:28Z</time>
      </trkpt>
      <trkpt lat="44.40226" lon="4.78161">
        <ele>175.58</ele>
        <time>2017-05-15T08:54:45Z</time>
      </trkpt>
      <trkpt lat="44.40217" lon="4.7817">
        <ele>175.58</ele>
        <time>2017-05-15T08:54:59Z</time>
      </trkpt>
      <trkpt lat="44.40208" lon="4.78179">
        <ele>175.58</ele>
        <time>2017-05-15T08:55:11Z</time>
      </trkpt>
      <trkpt lat="44.40199" lon="4.78189">
        <ele>177.02</ele>
        <time>2017-05-15T08:55:23Z</time>
      </trkpt>
      <trkpt lat="44.40186" lon="4.78205">
        <ele>178.46</ele>
        <time>2017-05-15T08:55:41Z</time>
      </trkpt>
      <trkpt lat="44.4018" lon="4.78218">
        <ele>179.9</ele>
        <time>2017-05-15T08:55:55Z</time>
      </trkpt>
      <trkpt lat="44.40176" lon="4.78243">
        <ele>182.79</ele>
        <time>2017-05-15T08:56:15Z</time>
      </trkpt>
      <trkpt lat="44.40173" lon="4.78258">
        <ele>185.67</ele>
        <time>2017-05-15T08:56:30Z</time>
      </trkpt>
      <trkpt lat="44.40172" lon="4.78269">
        <ele>187.11</ele>
        <time>2017-05-15T08:56:42Z</time>
      </trkpt>
      <trkpt lat="44.40168" lon="4.78284">
        <ele>188.56</ele>
        <time>2017-05-15T08:56:57Z</time>
      </trkpt>
      <trkpt lat="44.40164" lon="4.78299">
        <ele>190.48</ele>
        <time>2017-05-15T08:57:12Z</time>
      </trkpt>
      <trkpt lat="44.40155" lon="4.78317">
        <ele>191.92</ele>
        <time>2017-05-15T08:57:29Z</time>
      </trkpt>
      <trkpt lat="44.40143" lon="4.78333">
        <ele>191.92</ele>
        <time>2017-05-15T08:57:45Z</time>
      </trkpt>
      <trkpt lat="44.40129" lon="4.78346">
        <ele>193.36</ele>
        <time>2017-05-15T08:58:02Z</time>
      </trkpt>
      <trkpt lat="44.40113" lon="4.78359">
        <ele>193.84</ele>
        <time>2017-05-15T08:58:18Z</time>
      </trkpt>
      <trkpt lat="44.40101" lon="4.78369">
        <ele>194.8</ele>
        <time>2017-05-15T08:58:32Z</time>
      </trkpt>
      <trkpt lat="44.40089" lon="4.78382">
        <ele>196.73</ele>
        <time>2017-05-15T08:58:47Z</time>
      </trkpt>
      <trkpt lat="44.40085" lon="4.78385">
        <ele>195.77</ele>
        <time>2017-05-15T08:58:51Z</time>
      </trkpt>
      <trkpt lat="44.40073" lon="4.78396">
        <ele>196.73</ele>
        <time>2017-05-15T08:59:05Z</time>
      </trkpt>
      <trkpt lat="44.40065" lon="4.78405">
        <ele>197.21</ele>
        <time>2017-05-15T08:59:16Z</time>
      </trkpt>
      <trkpt lat="44.40064" lon="4.78406">
        <ele>197.21</ele>
        <time>2017-05-15T08:59:17Z</time>
      </trkpt>
      <trkpt lat="44.4005" lon="4.78424">
        <ele>197.21</ele>
        <time>2017-05-15T08:59:35Z</time>
      </trkpt>
      <trkpt lat="44.40047" lon="4.78446">
        <ele>199.61</ele>
        <time>2017-05-15T08:59:54Z</time>
      </trkpt>
      <trkpt lat="44.40048" lon="4.78465">
        <ele>201.53</ele>
        <time>2017-05-15T09:00:11Z</time>
      </trkpt>
      <trkpt lat="44.40049" lon="4.78486">
        <ele>204.42</ele>
        <time>2017-05-15T09:00:30Z</time>
      </trkpt>
      <trkpt lat="44.40049" lon="4.78508">
        <ele>206.82</ele>
        <time>2017-05-15T09:00:48Z</time>
      </trkpt>
      <trkpt lat="44.40049" lon="4.78513">
        <ele>206.82</ele>
        <time>2017-05-15T09:01:02Z</time>
      </trkpt>
      <trkpt lat="44.40048" lon="4.78513">
        <ele>206.82</ele>
        <time>2017-05-15T09:01:24Z</time>
      </trkpt>
      <trkpt lat="44.40049" lon="4.78515">
        <ele>206.82</ele>
        <time>2017-05-15T09:01:52Z</time>
      </trkpt>
      <trkpt lat="44.40049" lon="4.78517">
        <ele>202.98</ele>
        <time>2017-05-15T09:02:03Z</time>
      </trkpt>
      <trkpt lat="44.40048" lon="4.78517">
        <ele>210.67</ele>
        <time>2017-05-15T09:02:04Z</time>
      </trkpt>
      <trkpt lat="44.40049" lon="4.78517">
        <ele>206.82</ele>
        <time>2017-05-15T09:02:05Z</time>
      </trkpt>
      <trkpt lat="44.40046" lon="4.78515">
        <ele>205.86</ele>
        <time>2017-05-15T09:02:26Z</time>
      </trkpt>
      <trkpt lat="44.40044" lon="4.78515">
        <ele>205.86</ele>
        <time>2017-05-15T09:02:52Z</time>
      </trkpt>
      <trkpt lat="44.40044" lon="4.78518">
        <ele>206.34</ele>
        <time>2017-05-15T09:03:20Z</time>
      </trkpt>
      <trkpt lat="44.40041" lon="4.7853">
        <ele>206.34</ele>
        <time>2017-05-15T09:03:35Z</time>
      </trkpt>
      <trkpt lat="44.4004" lon="4.78532">
        <ele>207.78</ele>
        <time>2017-05-15T09:03:37Z</time>
      </trkpt>
      <trkpt lat="44.40031" lon="4.78549">
        <ele>208.74</ele>
        <time>2017-05-15T09:03:55Z</time>
      </trkpt>
      <trkpt lat="44.40021" lon="4.78563">
        <ele>210.19</ele>
        <time>2017-05-15T09:04:12Z</time>
      </trkpt>
      <trkpt lat="44.40011" lon="4.78578">
        <ele>211.15</ele>
        <time>2017-05-15T09:04:28Z</time>
      </trkpt>
      <trkpt lat="44.40001" lon="4.78594">
        <ele>212.11</ele>
        <time>2017-05-15T09:04:43Z</time>
      </trkpt>
      <trkpt lat="44.39995" lon="4.78609">
        <ele>212.59</ele>
        <time>2017-05-15T09:04:57Z</time>
      </trkpt>
      <trkpt lat="44.39985" lon="4.78626">
        <ele>213.07</ele>
        <time>2017-05-15T09:05:14Z</time>
      </trkpt>
      <trkpt lat="44.39975" lon="4.78627">
        <ele>214.03</ele>
        <time>2017-05-15T09:05:29Z</time>
      </trkpt>
      <trkpt lat="44.3996" lon="4.78621">
        <ele>214.03</ele>
        <time>2017-05-15T09:05:45Z</time>
      </trkpt>
      <trkpt lat="44.39946" lon="4.78615">
        <ele>214.03</ele>
        <time>2017-05-15T09:06:01Z</time>
      </trkpt>
      <trkpt lat="44.39932" lon="4.7861">
        <ele>213.07</ele>
        <time>2017-05-15T09:06:17Z</time>
      </trkpt>
      <trkpt lat="44.39918" lon="4.78603">
        <ele>212.11</ele>
        <time>2017-05-15T09:06:33Z</time>
      </trkpt>
      <trkpt lat="44.39915" lon="4.786">
        <ele>213.55</ele>
        <time>2017-05-15T09:06:38Z</time>
      </trkpt>
      <trkpt lat="44.39905" lon="4.78598">
        <ele>212.11</ele>
        <time>2017-05-15T09:06:50Z</time>
      </trkpt>
      <trkpt lat="44.39897" lon="4.78599">
        <ele>211.63</ele>
        <time>2017-05-15T09:06:58Z</time>
      </trkpt>
      <trkpt lat="44.39878" lon="4.78598">
        <ele>211.63</ele>
        <time>2017-05-15T09:07:14Z</time>
      </trkpt>
      <trkpt lat="44.39866" lon="4.78597">
        <ele>211.63</ele>
        <time>2017-05-15T09:07:28Z</time>
      </trkpt>
      <trkpt lat="44.39848" lon="4.78591">
        <ele>211.15</ele>
        <time>2017-05-15T09:07:44Z</time>
      </trkpt>
      <trkpt lat="44.3983" lon="4.7858">
        <ele>210.19</ele>
        <time>2017-05-15T09:08:02Z</time>
      </trkpt>
      <trkpt lat="44.39812" lon="4.78567">
        <ele>209.22</ele>
        <time>2017-05-15T09:08:20Z</time>
      </trkpt>
      <trkpt lat="44.39796" lon="4.78554">
        <ele>208.26</ele>
        <time>2017-05-15T09:08:38Z</time>
      </trkpt>
      <trkpt lat="44.39782" lon="4.78548">
        <ele>208.26</ele>
        <time>2017-05-15T09:08:52Z</time>
      </trkpt>
      <trkpt lat="44.39766" lon="4.78536">
        <ele>208.26</ele>
        <time>2017-05-15T09:09:09Z</time>
      </trkpt>
      <trkpt lat="44.39746" lon="4.7852">
        <ele>207.3</ele>
        <time>2017-05-15T09:09:29Z</time>
      </trkpt>
      <trkpt lat="44.39731" lon="4.78508">
        <ele>205.38</ele>
        <time>2017-05-15T09:09:45Z</time>
      </trkpt>
      <trkpt lat="44.39717" lon="4.78503">
        <ele>206.82</ele>
        <time>2017-05-15T09:09:58Z</time>
      </trkpt>
      <trkpt lat="44.39705" lon="4.785">
        <ele>206.34</ele>
        <time>2017-05-15T09:10:11Z</time>
      </trkpt>
      <trkpt lat="44.39691" lon="4.78499">
        <ele>204.42</ele>
        <time>2017-05-15T09:10:27Z</time>
      </trkpt>
      <trkpt lat="44.3968" lon="4.78501">
        <ele>203.46</ele>
        <time>2017-05-15T09:10:39Z</time>
      </trkpt>
      <trkpt lat="44.39677" lon="4.78501">
        <ele>203.46</ele>
        <time>2017-05-15T09:10:42Z</time>
      </trkpt>
      <trkpt lat="44.39674" lon="4.78502">
        <ele>202.98</ele>
        <time>2017-05-15T09:10:56Z</time>
      </trkpt>
      <trkpt lat="44.39673" lon="4.78507">
        <ele>203.46</ele>
        <time>2017-05-15T09:11:14Z</time>
      </trkpt>
      <trkpt lat="44.3967" lon="4.78509">
        <ele>204.42</ele>
        <time>2017-05-15T09:11:33Z</time>
      </trkpt>
      <trkpt lat="44.39663" lon="4.78511">
        <ele>202.98</ele>
        <time>2017-05-15T09:11:40Z</time>
      </trkpt>
      <trkpt lat="44.39647" lon="4.7852">
        <ele>202.01</ele>
        <time>2017-05-15T09:11:56Z</time>
      </trkpt>
      <trkpt lat="44.39631" lon="4.78529">
        <ele>201.05</ele>
        <time>2017-05-15T09:12:12Z</time>
      </trkpt>
      <trkpt lat="44.39621" lon="4.78532">
        <ele>199.13</ele>
        <time>2017-05-15T09:12:22Z</time>
      </trkpt>
      <trkpt lat="44.39605" lon="4.78537">
        <ele>197.69</ele>
        <time>2017-05-15T09:12:41Z</time>
      </trkpt>
      <trkpt lat="44.3959" lon="4.78544">
        <ele>195.77</ele>
        <time>2017-05-15T09:12:57Z</time>
      </trkpt>
      <trkpt lat="44.39578" lon="4.7855">
        <ele>193.84</ele>
        <time>2017-05-15T09:13:15Z</time>
      </trkpt>
      <trkpt lat="44.39571" lon="4.78543">
        <ele>192.4</ele>
        <time>2017-05-15T09:13:27Z</time>
      </trkpt>
      <trkpt lat="44.39572" lon="4.78537">
        <ele>190</ele>
        <time>2017-05-15T09:13:32Z</time>
      </trkpt>
      <trkpt lat="44.39572" lon="4.78534">
        <ele>191.92</ele>
        <time>2017-05-15T09:13:34Z</time>
      </trkpt>
      <trkpt lat="44.39572" lon="4.78531">
        <ele>190.96</ele>
        <time>2017-05-15T09:13:38Z</time>
      </trkpt>
      <trkpt lat="44.39567" lon="4.7851">
        <ele>190.96</ele>
        <time>2017-05-15T09:13:55Z</time>
      </trkpt>
      <trkpt lat="44.39566" lon="4.78508">
        <ele>188.56</ele>
        <time>2017-05-15T09:13:57Z</time>
      </trkpt>
      <trkpt lat="44.39564" lon="4.78505">
        <ele>192.88</ele>
        <time>2017-05-15T09:13:58Z</time>
      </trkpt>
      <trkpt lat="44.39557" lon="4.78495">
        <ele>189.52</ele>
        <time>2017-05-15T09:14:09Z</time>
      </trkpt>
      <trkpt lat="44.39546" lon="4.78484">
        <ele>190.48</ele>
        <time>2017-05-15T09:14:22Z</time>
      </trkpt>
      <trkpt lat="44.39545" lon="4.78484">
        <ele>190.48</ele>
        <time>2017-05-15T09:14:23Z</time>
      </trkpt>
      <trkpt lat="44.39529" lon="4.78458">
        <ele>188.56</ele>
        <time>2017-05-15T09:14:47Z</time>
      </trkpt>
      <trkpt lat="44.39518" lon="4.78431">
        <ele>186.63</ele>
        <time>2017-05-15T09:15:09Z</time>
      </trkpt>
      <trkpt lat="44.39507" lon="4.78403">
        <ele>185.19</ele>
        <time>2017-05-15T09:15:32Z</time>
      </trkpt>
      <trkpt lat="44.39492" lon="4.78373">
        <ele>183.75</ele>
        <time>2017-05-15T09:15:57Z</time>
      </trkpt>
      <trkpt lat="44.39476" lon="4.78342">
        <ele>181.35</ele>
        <time>2017-05-15T09:16:25Z</time>
      </trkpt>
      <trkpt lat="44.39462" lon="4.78317">
        <ele>179.42</ele>
        <time>2017-05-15T09:16:48Z</time>
      </trkpt>
      <trkpt lat="44.39451" lon="4.78299">
        <ele>177.98</ele>
        <time>2017-05-15T09:17:11Z</time>
      </trkpt>
      <trkpt lat="44.3945" lon="4.78299">
        <ele>179.42</ele>
        <time>2017-05-15T09:17:14Z</time>
      </trkpt>
      <trkpt lat="44.39441" lon="4.78282">
        <ele>177.5</ele>
        <time>2017-05-15T09:17:30Z</time>
      </trkpt>
      <trkpt lat="44.39429" lon="4.7826">
        <ele>176.06</ele>
        <time>2017-05-15T09:17:52Z</time>
      </trkpt>
      <trkpt lat="44.39419" lon="4.78244">
        <ele>174.62</ele>
        <time>2017-05-15T09:18:08Z</time>
      </trkpt>
      <trkpt lat="44.39409" lon="4.78223">
        <ele>173.66</ele>
        <time>2017-05-15T09:18:28Z</time>
      </trkpt>
      <trkpt lat="44.39402" lon="4.78213">
        <ele>172.69</ele>
        <time>2017-05-15T09:18:41Z</time>
      </trkpt>
      <trkpt lat="44.39401" lon="4.78212">
        <ele>171.25</ele>
        <time>2017-05-15T09:18:48Z</time>
      </trkpt>
      <trkpt lat="44.39401" lon="4.78212">
        <ele>174.62</ele>
        <time>2017-05-15T09:18:49Z</time>
      </trkpt>
      <trkpt lat="44.394" lon="4.78211">
        <ele>172.69</ele>
        <time>2017-05-15T09:18:50Z</time>
      </trkpt>
      <trkpt lat="44.39386" lon="4.78209">
        <ele>171.73</ele>
        <time>2017-05-15T09:19:07Z</time>
      </trkpt>
      <trkpt lat="44.39374" lon="4.78202">
        <ele>171.73</ele>
        <time>2017-05-15T09:19:24Z</time>
      </trkpt>
      <trkpt lat="44.39363" lon="4.78189">
        <ele>171.73</ele>
        <time>2017-05-15T09:19:41Z</time>
      </trkpt>
      <trkpt lat="44.3936" lon="4.78168">
        <ele>169.33</ele>
        <time>2017-05-15T09:19:59Z</time>
      </trkpt>
      <trkpt lat="44.39358" lon="4.78159">
        <ele>168.85</ele>
        <time>2017-05-15T09:20:05Z</time>
      </trkpt>
      <trkpt lat="44.3935" lon="4.78138">
        <ele>167.89</ele>
        <time>2017-05-15T09:20:21Z</time>
      </trkpt>
      <trkpt lat="44.39341" lon="4.78113">
        <ele>167.41</ele>
        <time>2017-05-15T09:20:41Z</time>
      </trkpt>
      <trkpt lat="44.39335" lon="4.78099">
        <ele>167.41</ele>
        <time>2017-05-15T09:20:52Z</time>
      </trkpt>
      <trkpt lat="44.39326" lon="4.78081">
        <ele>167.41</ele>
        <time>2017-05-15T09:21:08Z</time>
      </trkpt>
      <trkpt lat="44.39322" lon="4.78067">
        <ele>165.48</ele>
        <time>2017-05-15T09:21:25Z</time>
      </trkpt>
      <trkpt lat="44.39319" lon="4.78051">
        <ele>163.56</ele>
        <time>2017-05-15T09:21:42Z</time>
      </trkpt>
      <trkpt lat="44.39315" lon="4.78028">
        <ele>163.08</ele>
        <time>2017-05-15T09:22:00Z</time>
      </trkpt>
      <trkpt lat="44.39313" lon="4.78007">
        <ele>162.6</ele>
        <time>2017-05-15T09:22:18Z</time>
      </trkpt>
      <trkpt lat="44.39309" lon="4.77987">
        <ele>162.6</ele>
        <time>2017-05-15T09:22:33Z</time>
      </trkpt>
      <trkpt lat="44.39306" lon="4.77961">
        <ele>163.56</ele>
        <time>2017-05-15T09:22:50Z</time>
      </trkpt>
      <trkpt lat="44.39303" lon="4.77941">
        <ele>164.04</ele>
        <time>2017-05-15T09:23:06Z</time>
      </trkpt>
      <trkpt lat="44.39298" lon="4.77916">
        <ele>165</ele>
        <time>2017-05-15T09:23:23Z</time>
      </trkpt>
      <trkpt lat="44.39294" lon="4.7789">
        <ele>166.45</ele>
        <time>2017-05-15T09:23:38Z</time>
      </trkpt>
      <trkpt lat="44.39284" lon="4.77862">
        <ele>165.96</ele>
        <time>2017-05-15T09:23:56Z</time>
      </trkpt>
      <trkpt lat="44.39277" lon="4.77854">
        <ele>165</ele>
        <time>2017-05-15T09:24:05Z</time>
      </trkpt>
      <trkpt lat="44.39267" lon="4.7784">
        <ele>164.52</ele>
        <time>2017-05-15T09:24:20Z</time>
      </trkpt>
      <trkpt lat="44.39252" lon="4.77831">
        <ele>164.52</ele>
        <time>2017-05-15T09:24:35Z</time>
      </trkpt>
      <trkpt lat="44.39238" lon="4.7782">
        <ele>164.04</ele>
        <time>2017-05-15T09:24:50Z</time>
      </trkpt>
      <trkpt lat="44.39225" lon="4.77806">
        <ele>163.56</ele>
        <time>2017-05-15T09:25:07Z</time>
      </trkpt>
      <trkpt lat="44.39211" lon="4.77791">
        <ele>165</ele>
        <time>2017-05-15T09:25:21Z</time>
      </trkpt>
      <trkpt lat="44.39206" lon="4.7779">
        <ele>164.52</ele>
        <time>2017-05-15T09:25:38Z</time>
      </trkpt>
      <trkpt lat="44.39194" lon="4.77783">
        <ele>164.52</ele>
        <time>2017-05-15T09:25:54Z</time>
      </trkpt>
      <trkpt lat="44.39193" lon="4.77782">
        <ele>164.52</ele>
        <time>2017-05-15T09:26:12Z</time>
      </trkpt>
      <trkpt lat="44.39197" lon="4.77784">
        <ele>165</ele>
        <time>2017-05-15T09:26:20Z</time>
      </trkpt>
      <trkpt lat="44.39199" lon="4.77784">
        <ele>164.52</ele>
        <time>2017-05-15T09:26:22Z</time>
      </trkpt>
      <trkpt lat="44.39204" lon="4.77785">
        <ele>165.96</ele>
        <time>2017-05-15T09:26:28Z</time>
      </trkpt>
      <trkpt lat="44.39211" lon="4.77778">
        <ele>164.52</ele>
        <time>2017-05-15T09:26:40Z</time>
      </trkpt>
      <trkpt lat="44.39212" lon="4.77773">
        <ele>164.04</ele>
        <time>2017-05-15T09:26:44Z</time>
      </trkpt>
      <trkpt lat="44.39213" lon="4.77769">
        <ele>164.04</ele>
        <time>2017-05-15T09:26:48Z</time>
      </trkpt>
      <trkpt lat="44.39222" lon="4.77756">
        <ele>165</ele>
        <time>2017-05-15T09:27:03Z</time>
      </trkpt>
      <trkpt lat="44.39231" lon="4.77746">
        <ele>165</ele>
        <time>2017-05-15T09:27:17Z</time>
      </trkpt>
      <trkpt lat="44.39238" lon="4.77738">
        <ele>163.56</ele>
        <time>2017-05-15T09:27:28Z</time>
      </trkpt>
      <trkpt lat="44.39251" lon="4.77729">
        <ele>162.6</ele>
        <time>2017-05-15T09:27:40Z</time>
      </trkpt>
      <trkpt lat="44.39254" lon="4.77726">
        <ele>164.04</ele>
        <time>2017-05-15T09:27:44Z</time>
      </trkpt>
      <trkpt lat="44.39255" lon="4.77726">
        <ele>163.08</ele>
        <time>2017-05-15T09:27:45Z</time>
      </trkpt>
      <trkpt lat="44.39257" lon="4.77725">
        <ele>165.48</ele>
        <time>2017-05-15T09:27:47Z</time>
      </trkpt>
      <trkpt lat="44.3927" lon="4.7772">
        <ele>162.6</ele>
        <time>2017-05-15T09:28:01Z</time>
      </trkpt>
      <trkpt lat="44.39278" lon="4.77711">
        <ele>162.12</ele>
        <time>2017-05-15T09:28:15Z</time>
      </trkpt>
      <trkpt lat="44.39292" lon="4.77703">
        <ele>160.2</ele>
        <time>2017-05-15T09:28:31Z</time>
      </trkpt>
      <trkpt lat="44.39303" lon="4.77692">
        <ele>159.24</ele>
        <time>2017-05-15T09:28:47Z</time>
      </trkpt>
      <trkpt lat="44.39306" lon="4.77689">
        <ele>158.75</ele>
        <time>2017-05-15T09:28:50Z</time>
      </trkpt>
      <trkpt lat="44.39318" lon="4.7767">
        <ele>157.31</ele>
        <time>2017-05-15T09:29:09Z</time>
      </trkpt>
      <trkpt lat="44.39324" lon="4.77661">
        <ele>157.31</ele>
        <time>2017-05-15T09:29:18Z</time>
      </trkpt>
      <trkpt lat="44.39336" lon="4.7763">
        <ele>156.35</ele>
        <time>2017-05-15T09:29:39Z</time>
      </trkpt>
      <trkpt lat="44.39339" lon="4.7762">
        <ele>157.79</ele>
        <time>2017-05-15T09:29:46Z</time>
      </trkpt>
      <trkpt lat="44.39342" lon="4.77608">
        <ele>157.79</ele>
        <time>2017-05-15T09:30:02Z</time>
      </trkpt>
      <trkpt lat="44.39344" lon="4.77605">
        <ele>155.87</ele>
        <time>2017-05-15T09:30:21Z</time>
      </trkpt>
      <trkpt lat="44.3935" lon="4.77604">
        <ele>156.83</ele>
        <time>2017-05-15T09:30:37Z</time>
      </trkpt>
      <trkpt lat="44.39356" lon="4.77602">
        <ele>155.87</ele>
        <time>2017-05-15T09:30:46Z</time>
      </trkpt>
      <trkpt lat="44.39368" lon="4.77594">
        <ele>155.87</ele>
        <time>2017-05-15T09:31:01Z</time>
      </trkpt>
      <trkpt lat="44.3938" lon="4.77606">
        <ele>154.91</ele>
        <time>2017-05-15T09:31:17Z</time>
      </trkpt>
      <trkpt lat="44.39391" lon="4.77613">
        <ele>153.95</ele>
        <time>2017-05-15T09:31:34Z</time>
      </trkpt>
      <trkpt lat="44.39401" lon="4.77611">
        <ele>153.47</ele>
        <time>2017-05-15T09:31:48Z</time>
      </trkpt>
      <trkpt lat="44.39417" lon="4.77606">
        <ele>154.43</ele>
        <time>2017-05-15T09:32:04Z</time>
      </trkpt>
      <trkpt lat="44.3943" lon="4.77599">
        <ele>154.43</ele>
        <time>2017-05-15T09:32:20Z</time>
      </trkpt>
      <trkpt lat="44.39435" lon="4.77595">
        <ele>154.43</ele>
        <time>2017-05-15T09:32:36Z</time>
      </trkpt>
      <trkpt lat="44.39447" lon="4.77578">
        <ele>154.91</ele>
        <time>2017-05-15T09:32:54Z</time>
      </trkpt>
      <trkpt lat="44.39447" lon="4.77576">
        <ele>155.39</ele>
        <time>2017-05-15T09:33:07Z</time>
      </trkpt>
      <trkpt lat="44.39441" lon="4.77561">
        <ele>155.39</ele>
        <time>2017-05-15T09:33:24Z</time>
      </trkpt>
      <trkpt lat="44.39439" lon="4.77555">
        <ele>155.39</ele>
        <time>2017-05-15T09:33:38Z</time>
      </trkpt>
      <trkpt lat="44.39446" lon="4.77554">
        <ele>155.39</ele>
        <time>2017-05-15T09:33:53Z</time>
      </trkpt>
      <trkpt lat="44.39453" lon="4.77549">
        <ele>155.39</ele>
        <time>2017-05-15T09:34:07Z</time>
      </trkpt>
      <trkpt lat="44.39456" lon="4.77542">
        <ele>155.39</ele>
        <time>2017-05-15T09:34:20Z</time>
      </trkpt>
      <trkpt lat="44.39462" lon="4.77536">
        <ele>153.95</ele>
        <time>2017-05-15T09:34:35Z</time>
      </trkpt>
      <trkpt lat="44.39467" lon="4.77521">
        <ele>152.99</ele>
        <time>2017-05-15T09:34:51Z</time>
      </trkpt>
      <trkpt lat="44.3947" lon="4.7751">
        <ele>151.54</ele>
        <time>2017-05-15T09:35:04Z</time>
      </trkpt>
      <trkpt lat="44.39476" lon="4.77496">
        <ele>149.62</ele>
        <time>2017-05-15T09:35:20Z</time>
      </trkpt>
      <trkpt lat="44.39483" lon="4.77478">
        <ele>148.66</ele>
        <time>2017-05-15T09:35:36Z</time>
      </trkpt>
      <trkpt lat="44.39488" lon="4.77467">
        <ele>148.18</ele>
        <time>2017-05-15T09:35:52Z</time>
      </trkpt>
      <trkpt lat="44.39489" lon="4.77465">
        <ele>148.18</ele>
        <time>2017-05-15T09:36:10Z</time>
      </trkpt>
      <trkpt lat="44.3949" lon="4.77461">
        <ele>148.18</ele>
        <time>2017-05-15T09:36:38Z</time>
      </trkpt>
      <trkpt lat="44.39493" lon="4.77448">
        <ele>148.18</ele>
        <time>2017-05-15T09:36:54Z</time>
      </trkpt>
      <trkpt lat="44.39493" lon="4.77444">
        <ele>148.18</ele>
        <time>2017-05-15T09:37:11Z</time>
      </trkpt>
      <trkpt lat="44.39489" lon="4.77451">
        <ele>147.22</ele>
        <time>2017-05-15T09:37:25Z</time>
      </trkpt>
      <trkpt lat="44.3948" lon="4.77467">
        <ele>145.3</ele>
        <time>2017-05-15T09:37:43Z</time>
      </trkpt>
      <trkpt lat="44.39469" lon="4.77482">
        <ele>144.34</ele>
        <time>2017-05-15T09:38:00Z</time>
      </trkpt>
      <trkpt lat="44.39458" lon="4.77485">
        <ele>142.89</ele>
        <time>2017-05-15T09:38:15Z</time>
      </trkpt>
      <trkpt lat="44.39447" lon="4.77476">
        <ele>141.93</ele>
        <time>2017-05-15T09:38:31Z</time>
      </trkpt>
      <trkpt lat="44.39438" lon="4.77467">
        <ele>141.93</ele>
        <time>2017-05-15T09:38:46Z</time>
      </trkpt>
      <trkpt lat="44.39439" lon="4.77466">
        <ele>141.93</ele>
        <time>2017-05-15T09:39:02Z</time>
      </trkpt>
      <trkpt lat="44.39436" lon="4.77465">
        <ele>141.45</ele>
        <time>2017-05-15T09:39:21Z</time>
      </trkpt>
      <trkpt lat="44.39427" lon="4.77463">
        <ele>140.97</ele>
        <time>2017-05-15T09:39:36Z</time>
      </trkpt>
      <trkpt lat="44.39428" lon="4.77463">
        <ele>141.93</ele>
        <time>2017-05-15T09:40:03Z</time>
      </trkpt>
      <trkpt lat="44.39427" lon="4.77462">
        <ele>140.49</ele>
        <time>2017-05-15T09:40:09Z</time>
      </trkpt>
      <trkpt lat="44.39427" lon="4.77465">
        <ele>140.49</ele>
        <time>2017-05-15T09:40:25Z</time>
      </trkpt>
      <trkpt lat="44.39431" lon="4.77476">
        <ele>140.49</ele>
        <time>2017-05-15T09:40:43Z</time>
      </trkpt>
      <trkpt lat="44.39424" lon="4.7748">
        <ele>140.49</ele>
        <time>2017-05-15T09:40:58Z</time>
      </trkpt>
      <trkpt lat="44.39421" lon="4.77486">
        <ele>141.93</ele>
        <time>2017-05-15T09:41:15Z</time>
      </trkpt>
      <trkpt lat="44.39422" lon="4.77506">
        <ele>142.89</ele>
        <time>2017-05-15T09:41:31Z</time>
      </trkpt>
      <trkpt lat="44.39421" lon="4.77522">
        <ele>142.89</ele>
        <time>2017-05-15T09:41:47Z</time>
      </trkpt>
      <trkpt lat="44.39425" lon="4.77528">
        <ele>142.89</ele>
        <time>2017-05-15T09:42:09Z</time>
      </trkpt>
      <trkpt lat="44.39428" lon="4.77535">
        <ele>141.93</ele>
        <time>2017-05-15T09:42:31Z</time>
      </trkpt>
      <trkpt lat="44.39431" lon="4.77537">
        <ele>141.45</ele>
        <time>2017-05-15T09:42:57Z</time>
      </trkpt>
      <trkpt lat="44.39429" lon="4.77533">
        <ele>141.45</ele>
        <time>2017-05-15T09:43:23Z</time>
      </trkpt>
      <trkpt lat="44.39425" lon="4.77531">
        <ele>141.45</ele>
        <time>2017-05-15T09:43:52Z</time>
      </trkpt>
      <trkpt lat="44.39424" lon="4.77528">
        <ele>141.45</ele>
        <time>2017-05-15T09:44:17Z</time>
      </trkpt>
      <trkpt lat="44.39425" lon="4.77528">
        <ele>141.45</ele>
        <time>2017-05-15T09:44:44Z</time>
      </trkpt>
      <trkpt lat="44.39426" lon="4.77528">
        <ele>141.45</ele>
        <time>2017-05-15T09:45:11Z</time>
      </trkpt>
      <trkpt lat="44.39427" lon="4.77528">
        <ele>140.97</ele>
        <time>2017-05-15T09:45:39Z</time>
      </trkpt>
      <trkpt lat="44.39428" lon="4.77525">
        <ele>140.97</ele>
        <time>2017-05-15T09:46:02Z</time>
      </trkpt>
      <trkpt lat="44.39428" lon="4.77525">
        <ele>140.97</ele>
        <time>2017-05-15T09:46:31Z</time>
      </trkpt>
      <trkpt lat="44.39428" lon="4.77525">
        <ele>142.41</ele>
        <time>2017-05-15T09:46:47Z</time>
      </trkpt>
      <trkpt lat="44.39426" lon="4.77524">
        <ele>142.89</ele>
        <time>2017-05-15T09:47:18Z</time>
      </trkpt>
      <trkpt lat="44.39427" lon="4.77527">
        <ele>142.89</ele>
        <time>2017-05-15T09:47:54Z</time>
      </trkpt>
      <trkpt lat="44.39425" lon="4.77528">
        <ele>143.37</ele>
        <time>2017-05-15T09:48:25Z</time>
      </trkpt>
      <trkpt lat="44.39429" lon="4.77527">
        <ele>143.37</ele>
        <time>2017-05-15T09:48:51Z</time>
      </trkpt>
      <trkpt lat="44.3943" lon="4.77528">
        <ele>143.85</ele>
        <time>2017-05-15T09:49:25Z</time>
      </trkpt>
      <trkpt lat="44.3943" lon="4.77529">
        <ele>143.85</ele>
        <time>2017-05-15T09:49:53Z</time>
      </trkpt>
      <trkpt lat="44.3943" lon="4.77528">
        <ele>143.85</ele>
        <time>2017-05-15T09:50:21Z</time>
      </trkpt>
      <trkpt lat="44.39429" lon="4.7753">
        <ele>144.34</ele>
        <time>2017-05-15T09:50:52Z</time>
      </trkpt>
      <trkpt lat="44.39429" lon="4.7753">
        <ele>143.37</ele>
        <time>2017-05-15T09:51:29Z</time>
      </trkpt>
      <trkpt lat="44.39427" lon="4.77526">
        <ele>143.37</ele>
        <time>2017-05-15T09:52:01Z</time>
      </trkpt>
      <trkpt lat="44.39427" lon="4.77526">
        <ele>143.37</ele>
        <time>2017-05-15T09:52:35Z</time>
      </trkpt>
      <trkpt lat="44.39427" lon="4.77527">
        <ele>143.85</ele>
        <time>2017-05-15T09:53:08Z</time>
      </trkpt>
      <trkpt lat="44.39427" lon="4.77531">
        <ele>143.85</ele>
        <time>2017-05-15T09:53:43Z</time>
      </trkpt>
      <trkpt lat="44.39428" lon="4.77527">
        <ele>143.85</ele>
        <time>2017-05-15T09:54:09Z</time>
      </trkpt>
      <trkpt lat="44.39431" lon="4.77524">
        <ele>143.85</ele>
        <time>2017-05-15T09:54:42Z</time>
      </trkpt>
      <trkpt lat="44.39429" lon="4.77523">
        <ele>144.34</ele>
        <time>2017-05-15T09:55:17Z</time>
      </trkpt>
      <trkpt lat="44.39431" lon="4.77522">
        <ele>144.34</ele>
        <time>2017-05-15T09:55:48Z</time>
      </trkpt>
      <trkpt lat="44.3943" lon="4.77523">
        <ele>144.82</ele>
        <time>2017-05-15T09:56:20Z</time>
      </trkpt>
      <trkpt lat="44.39429" lon="4.77527">
        <ele>144.82</ele>
        <time>2017-05-15T09:56:50Z</time>
      </trkpt>
      <trkpt lat="44.3943" lon="4.77528">
        <ele>144.82</ele>
        <time>2017-05-15T09:57:14Z</time>
      </trkpt>
      <trkpt lat="44.39429" lon="4.7753">
        <ele>144.82</ele>
        <time>2017-05-15T09:57:52Z</time>
      </trkpt>
      <trkpt lat="44.3943" lon="4.77529">
        <ele>144.82</ele>
        <time>2017-05-15T09:58:24Z</time>
      </trkpt>
      <trkpt lat="44.39431" lon="4.77528">
        <ele>145.3</ele>
        <time>2017-05-15T09:58:53Z</time>
      </trkpt>
      <trkpt lat="44.39431" lon="4.77527">
        <ele>145.3</ele>
        <time>2017-05-15T09:59:23Z</time>
      </trkpt>
      <trkpt lat="44.39432" lon="4.77527">
        <ele>145.3</ele>
        <time>2017-05-15T09:59:52Z</time>
      </trkpt>
      <trkpt lat="44.39433" lon="4.77528">
        <ele>145.78</ele>
        <time>2017-05-15T10:00:31Z</time>
      </trkpt>
      <trkpt lat="44.39432" lon="4.77527">
        <ele>145.78</ele>
        <time>2017-05-15T10:01:03Z</time>
      </trkpt>
      <trkpt lat="44.39429" lon="4.77525">
        <ele>146.26</ele>
        <time>2017-05-15T10:01:39Z</time>
      </trkpt>
      <trkpt lat="44.39424" lon="4.77525">
        <ele>146.26</ele>
        <time>2017-05-15T10:02:14Z</time>
      </trkpt>
      <trkpt lat="44.39426" lon="4.77522">
        <ele>146.26</ele>
        <time>2017-05-15T10:02:46Z</time>
      </trkpt>
      <trkpt lat="44.39426" lon="4.77521">
        <ele>146.26</ele>
        <time>2017-05-15T10:03:19Z</time>
      </trkpt>
      <trkpt lat="44.39425" lon="4.77523">
        <ele>146.26</ele>
        <time>2017-05-15T10:03:57Z</time>
      </trkpt>
      <trkpt lat="44.39426" lon="4.77526">
        <ele>146.26</ele>
        <time>2017-05-15T10:04:27Z</time>
      </trkpt>
      <trkpt lat="44.39424" lon="4.77527">
        <ele>146.74</ele>
        <time>2017-05-15T10:04:52Z</time>
      </trkpt>
      <trkpt lat="44.39425" lon="4.77526">
        <ele>146.74</ele>
        <time>2017-05-15T10:05:19Z</time>
      </trkpt>
      <trkpt lat="44.39425" lon="4.77523">
        <ele>147.7</ele>
        <time>2017-05-15T10:05:50Z</time>
      </trkpt>
      <trkpt lat="44.39426" lon="4.77521">
        <ele>148.18</ele>
        <time>2017-05-15T10:06:17Z</time>
      </trkpt>
      <trkpt lat="44.39424" lon="4.77526">
        <ele>148.18</ele>
        <time>2017-05-15T10:06:48Z</time>
      </trkpt>
      <trkpt lat="44.39427" lon="4.77529">
        <ele>148.18</ele>
        <time>2017-05-15T10:07:18Z</time>
      </trkpt>
      <trkpt lat="44.39428" lon="4.77526">
        <ele>148.18</ele>
        <time>2017-05-15T10:07:55Z</time>
      </trkpt>
      <trkpt lat="44.3943" lon="4.77525">
        <ele>148.66</ele>
        <time>2017-05-15T10:08:26Z</time>
      </trkpt>
      <trkpt lat="44.3943" lon="4.77526">
        <ele>148.66</ele>
        <time>2017-05-15T10:08:53Z</time>
      </trkpt>
      <trkpt lat="44.39426" lon="4.77526">
        <ele>148.66</ele>
        <time>2017-05-15T10:09:23Z</time>
      </trkpt>
      <trkpt lat="44.39425" lon="4.77528">
        <ele>148.66</ele>
        <time>2017-05-15T10:09:56Z</time>
      </trkpt>
      <trkpt lat="44.39424" lon="4.77528">
        <ele>148.66</ele>
        <time>2017-05-15T10:10:26Z</time>
      </trkpt>
      <trkpt lat="44.39425" lon="4.77529">
        <ele>148.66</ele>
        <time>2017-05-15T10:10:58Z</time>
      </trkpt>
      <trkpt lat="44.39424" lon="4.77528">
        <ele>149.14</ele>
        <time>2017-05-15T10:11:28Z</time>
      </trkpt>
      <trkpt lat="44.39426" lon="4.77528">
        <ele>149.62</ele>
        <time>2017-05-15T10:11:56Z</time>
      </trkpt>
      <trkpt lat="44.39427" lon="4.77531">
        <ele>148.18</ele>
        <time>2017-05-15T10:12:32Z</time>
      </trkpt>
      <trkpt lat="44.39427" lon="4.77531">
        <ele>148.18</ele>
        <time>2017-05-15T10:12:33Z</time>
      </trkpt>
      <trkpt lat="44.39427" lon="4.77533">
        <ele>148.18</ele>
        <time>2017-05-15T10:13:02Z</time>
      </trkpt>
      <trkpt lat="44.39428" lon="4.77536">
        <ele>148.18</ele>
        <time>2017-05-15T10:13:27Z</time>
      </trkpt>
      <trkpt lat="44.39429" lon="4.77531">
        <ele>148.18</ele>
        <time>2017-05-15T10:14:01Z</time>
      </trkpt>
      <trkpt lat="44.39426" lon="4.77531">
        <ele>147.7</ele>
        <time>2017-05-15T10:14:30Z</time>
      </trkpt>
      <trkpt lat="44.39427" lon="4.7753">
        <ele>147.7</ele>
        <time>2017-05-15T10:15:02Z</time>
      </trkpt>
      <trkpt lat="44.39427" lon="4.77526">
        <ele>147.7</ele>
        <time>2017-05-15T10:15:32Z</time>
      </trkpt>
      <trkpt lat="44.39425" lon="4.77526">
        <ele>147.7</ele>
        <time>2017-05-15T10:15:56Z</time>
      </trkpt>
      <trkpt lat="44.39426" lon="4.77531">
        <ele>147.7</ele>
        <time>2017-05-15T10:16:36Z</time>
      </trkpt>
      <trkpt lat="44.39424" lon="4.7753">
        <ele>148.18</ele>
        <time>2017-05-15T10:17:18Z</time>
      </trkpt>
      <trkpt lat="44.39426" lon="4.7753">
        <ele>148.18</ele>
        <time>2017-05-15T10:17:51Z</time>
      </trkpt>
      <trkpt lat="44.3943" lon="4.77527">
        <ele>149.14</ele>
        <time>2017-05-15T10:18:27Z</time>
      </trkpt>
      <trkpt lat="44.3943" lon="4.77529">
        <ele>149.14</ele>
        <time>2017-05-15T10:18:53Z</time>
      </trkpt>
      <trkpt lat="44.39429" lon="4.77531">
        <ele>149.14</ele>
        <time>2017-05-15T10:19:27Z</time>
      </trkpt>
      <trkpt lat="44.39426" lon="4.77524">
        <ele>149.14</ele>
        <time>2017-05-15T10:20:07Z</time>
      </trkpt>
      <trkpt lat="44.39429" lon="4.77523">
        <ele>149.62</ele>
        <time>2017-05-15T10:20:39Z</time>
      </trkpt>
      <trkpt lat="44.3943" lon="4.77526">
        <ele>149.62</ele>
        <time>2017-05-15T10:21:16Z</time>
      </trkpt>
      <trkpt lat="44.39432" lon="4.77531">
        <ele>150.1</ele>
        <time>2017-05-15T10:21:50Z</time>
      </trkpt>
      <trkpt lat="44.39429" lon="4.77534">
        <ele>150.1</ele>
        <time>2017-05-15T10:22:22Z</time>
      </trkpt>
      <trkpt lat="44.39431" lon="4.77531">
        <ele>150.1</ele>
        <time>2017-05-15T10:22:59Z</time>
      </trkpt>
      <trkpt lat="44.39429" lon="4.77529">
        <ele>150.1</ele>
        <time>2017-05-15T10:23:27Z</time>
      </trkpt>
      <trkpt lat="44.39433" lon="4.7753">
        <ele>150.1</ele>
        <time>2017-05-15T10:24:01Z</time>
      </trkpt>
      <trkpt lat="44.39432" lon="4.7753">
        <ele>150.1</ele>
        <time>2017-05-15T10:24:33Z</time>
      </trkpt>
      <trkpt lat="44.39431" lon="4.7753">
        <ele>150.1</ele>
        <time>2017-05-15T10:24:59Z</time>
      </trkpt>
      <trkpt lat="44.39431" lon="4.77528">
        <ele>150.1</ele>
        <time>2017-05-15T10:25:26Z</time>
      </trkpt>
      <trkpt lat="44.39431" lon="4.77524">
        <ele>150.1</ele>
        <time>2017-05-15T10:25:51Z</time>
      </trkpt>
      <trkpt lat="44.39428" lon="4.77525">
        <ele>150.1</ele>
        <time>2017-05-15T10:26:13Z</time>
      </trkpt>
      <trkpt lat="44.39429" lon="4.77526">
        <ele>150.1</ele>
        <time>2017-05-15T10:26:36Z</time>
      </trkpt>
      <trkpt lat="44.39428" lon="4.77526">
        <ele>150.1</ele>
        <time>2017-05-15T10:27:08Z</time>
      </trkpt>
      <trkpt lat="44.3943" lon="4.77523">
        <ele>150.1</ele>
        <time>2017-05-15T10:27:45Z</time>
      </trkpt>
      <trkpt lat="44.39429" lon="4.77526">
        <ele>150.58</ele>
        <time>2017-05-15T10:28:08Z</time>
      </trkpt>
      <trkpt lat="44.39425" lon="4.77527">
        <ele>150.58</ele>
        <time>2017-05-15T10:28:27Z</time>
      </trkpt>
      <trkpt lat="44.39423" lon="4.77527">
        <ele>150.58</ele>
        <time>2017-05-15T10:28:57Z</time>
      </trkpt>
      <trkpt lat="44.39424" lon="4.77525">
        <ele>150.1</ele>
        <time>2017-05-15T10:29:21Z</time>
      </trkpt>
      <trkpt lat="44.39425" lon="4.77525">
        <ele>150.58</ele>
        <time>2017-05-15T10:29:49Z</time>
      </trkpt>
      <trkpt lat="44.39426" lon="4.77525">
        <ele>150.1</ele>
        <time>2017-05-15T10:30:18Z</time>
      </trkpt>
      <trkpt lat="44.39427" lon="4.77528">
        <ele>150.58</ele>
        <time>2017-05-15T10:30:41Z</time>
      </trkpt>
      <trkpt lat="44.39425" lon="4.77533">
        <ele>150.58</ele>
        <time>2017-05-15T10:31:03Z</time>
      </trkpt>
      <trkpt lat="44.39422" lon="4.77531">
        <ele>150.58</ele>
        <time>2017-05-15T10:31:29Z</time>
      </trkpt>
      <trkpt lat="44.39424" lon="4.77529">
        <ele>150.58</ele>
        <time>2017-05-15T10:31:55Z</time>
      </trkpt>
      <trkpt lat="44.39426" lon="4.77531">
        <ele>150.58</ele>
        <time>2017-05-15T10:32:19Z</time>
      </trkpt>
      <trkpt lat="44.39427" lon="4.7753">
        <ele>150.58</ele>
        <time>2017-05-15T10:32:46Z</time>
      </trkpt>
      <trkpt lat="44.39426" lon="4.77529">
        <ele>149.62</ele>
        <time>2017-05-15T10:33:09Z</time>
      </trkpt>
      <trkpt lat="44.39427" lon="4.77528">
        <ele>149.62</ele>
        <time>2017-05-15T10:33:32Z</time>
      </trkpt>
      <trkpt lat="44.39429" lon="4.77525">
        <ele>149.14</ele>
        <time>2017-05-15T10:33:59Z</time>
      </trkpt>
      <trkpt lat="44.39427" lon="4.77525">
        <ele>150.58</ele>
        <time>2017-05-15T10:34:31Z</time>
      </trkpt>
      <trkpt lat="44.39424" lon="4.7753">
        <ele>150.58</ele>
        <time>2017-05-15T10:35:06Z</time>
      </trkpt>
      <trkpt lat="44.39427" lon="4.77532">
        <ele>149.14</ele>
        <time>2017-05-15T10:35:34Z</time>
      </trkpt>
      <trkpt lat="44.39425" lon="4.7753">
        <ele>149.14</ele>
        <time>2017-05-15T10:36:04Z</time>
      </trkpt>
      <trkpt lat="44.39429" lon="4.7753">
        <ele>149.14</ele>
        <time>2017-05-15T10:36:34Z</time>
      </trkpt>
      <trkpt lat="44.39428" lon="4.77528">
        <ele>148.66</ele>
        <time>2017-05-15T10:37:07Z</time>
      </trkpt>
      <trkpt lat="44.39429" lon="4.77528">
        <ele>148.66</ele>
        <time>2017-05-15T10:37:44Z</time>
      </trkpt>
      <trkpt lat="44.3943" lon="4.77527">
        <ele>150.1</ele>
        <time>2017-05-15T10:37:53Z</time>
      </trkpt>
      <trkpt lat="44.39429" lon="4.77528">
        <ele>150.1</ele>
        <time>2017-05-15T10:38:25Z</time>
      </trkpt>
      <trkpt lat="44.39427" lon="4.77528">
        <ele>150.1</ele>
        <time>2017-05-15T10:38:58Z</time>
      </trkpt>
      <trkpt lat="44.39428" lon="4.77529">
        <ele>150.1</ele>
        <time>2017-05-15T10:39:19Z</time>
      </trkpt>
      <trkpt lat="44.39431" lon="4.77525">
        <ele>150.1</ele>
        <time>2017-05-15T10:39:34Z</time>
      </trkpt>
      <trkpt lat="44.3943" lon="4.77531">
        <ele>150.1</ele>
        <time>2017-05-15T10:39:49Z</time>
      </trkpt>
      <trkpt lat="44.39425" lon="4.77531">
        <ele>151.06</ele>
        <time>2017-05-15T10:40:17Z</time>
      </trkpt>
      <trkpt lat="44.39429" lon="4.77534">
        <ele>151.54</ele>
        <time>2017-05-15T10:40:38Z</time>
      </trkpt>
      <trkpt lat="44.39436" lon="4.77535">
        <ele>152.99</ele>
        <time>2017-05-15T10:40:54Z</time>
      </trkpt>
      <trkpt lat="44.39442" lon="4.7754">
        <ele>153.47</ele>
        <time>2017-05-15T10:41:18Z</time>
      </trkpt>
      <trkpt lat="44.39441" lon="4.77538">
        <ele>153.47</ele>
        <time>2017-05-15T10:41:40Z</time>
      </trkpt>
      <trkpt lat="44.39442" lon="4.77538">
        <ele>153.47</ele>
        <time>2017-05-15T10:42:05Z</time>
      </trkpt>
      <trkpt lat="44.39431" lon="4.77538">
        <ele>151.54</ele>
        <time>2017-05-15T10:42:20Z</time>
      </trkpt>
      <trkpt lat="44.39419" lon="4.77541">
        <ele>151.06</ele>
        <time>2017-05-15T10:42:37Z</time>
      </trkpt>
      <trkpt lat="44.39411" lon="4.77547">
        <ele>151.06</ele>
        <time>2017-05-15T10:42:54Z</time>
      </trkpt>
      <trkpt lat="44.39408" lon="4.7756">
        <ele>152.99</ele>
        <time>2017-05-15T10:43:12Z</time>
      </trkpt>
      <trkpt lat="44.39411" lon="4.77564">
        <ele>153.47</ele>
        <time>2017-05-15T10:43:36Z</time>
      </trkpt>
      <trkpt lat="44.39412" lon="4.7756">
        <ele>153.95</ele>
        <time>2017-05-15T10:43:55Z</time>
      </trkpt>
      <trkpt lat="44.39415" lon="4.77558">
        <ele>154.91</ele>
        <time>2017-05-15T10:44:10Z</time>
      </trkpt>
      <trkpt lat="44.39415" lon="4.77565">
        <ele>156.83</ele>
        <time>2017-05-15T10:44:32Z</time>
      </trkpt>
      <trkpt lat="44.39411" lon="4.77571">
        <ele>157.79</ele>
        <time>2017-05-15T10:44:51Z</time>
      </trkpt>
      <trkpt lat="44.39411" lon="4.77576">
        <ele>159.24</ele>
        <time>2017-05-15T10:45:08Z</time>
      </trkpt>
      <trkpt lat="44.39414" lon="4.77586">
        <ele>160.2</ele>
        <time>2017-05-15T10:45:21Z</time>
      </trkpt>
      <trkpt lat="44.39422" lon="4.77592">
        <ele>160.2</ele>
        <time>2017-05-15T10:45:35Z</time>
      </trkpt>
      <trkpt lat="44.39425" lon="4.77596">
        <ele>160.68</ele>
        <time>2017-05-15T10:45:50Z</time>
      </trkpt>
      <trkpt lat="44.39425" lon="4.77601">
        <ele>160.2</ele>
        <time>2017-05-15T10:46:09Z</time>
      </trkpt>
      <trkpt lat="44.39423" lon="4.77602">
        <ele>159.24</ele>
        <time>2017-05-15T10:46:24Z</time>
      </trkpt>
      <trkpt lat="44.39412" lon="4.77607">
        <ele>159.24</ele>
        <time>2017-05-15T10:46:40Z</time>
      </trkpt>
      <trkpt lat="44.3941" lon="4.77608">
        <ele>158.75</ele>
        <time>2017-05-15T10:46:56Z</time>
      </trkpt>
      <trkpt lat="44.39411" lon="4.77607">
        <ele>158.75</ele>
        <time>2017-05-15T10:47:18Z</time>
      </trkpt>
      <trkpt lat="44.3941" lon="4.77607">
        <ele>158.75</ele>
        <time>2017-05-15T10:47:45Z</time>
      </trkpt>
      <trkpt lat="44.39404" lon="4.77612">
        <ele>158.75</ele>
        <time>2017-05-15T10:48:04Z</time>
      </trkpt>
      <trkpt lat="44.39394" lon="4.77615">
        <ele>158.27</ele>
        <time>2017-05-15T10:48:21Z</time>
      </trkpt>
      <trkpt lat="44.39382" lon="4.7761">
        <ele>159.24</ele>
        <time>2017-05-15T10:48:37Z</time>
      </trkpt>
      <trkpt lat="44.39376" lon="4.77598">
        <ele>159.24</ele>
        <time>2017-05-15T10:48:54Z</time>
      </trkpt>
      <trkpt lat="44.39362" lon="4.77598">
        <ele>159.24</ele>
        <time>2017-05-15T10:49:10Z</time>
      </trkpt>
      <trkpt lat="44.39346" lon="4.77605">
        <ele>160.2</ele>
        <time>2017-05-15T10:49:27Z</time>
      </trkpt>
      <trkpt lat="44.39332" lon="4.77607">
        <ele>160.2</ele>
        <time>2017-05-15T10:49:44Z</time>
      </trkpt>
      <trkpt lat="44.39325" lon="4.77607">
        <ele>158.75</ele>
        <time>2017-05-15T10:49:52Z</time>
      </trkpt>
      <trkpt lat="44.39318" lon="4.77605">
        <ele>160.2</ele>
        <time>2017-05-15T10:49:59Z</time>
      </trkpt>
      <trkpt lat="44.39302" lon="4.77598">
        <ele>160.2</ele>
        <time>2017-05-15T10:50:18Z</time>
      </trkpt>
      <trkpt lat="44.39299" lon="4.77595">
        <ele>160.2</ele>
        <time>2017-05-15T10:50:22Z</time>
      </trkpt>
      <trkpt lat="44.39295" lon="4.77592">
        <ele>155.39</ele>
        <time>2017-05-15T10:50:33Z</time>
      </trkpt>
      <trkpt lat="44.39295" lon="4.77592">
        <ele>164.52</ele>
        <time>2017-05-15T10:50:34Z</time>
      </trkpt>
      <trkpt lat="44.39295" lon="4.77592">
        <ele>158.27</ele>
        <time>2017-05-15T10:50:35Z</time>
      </trkpt>
      <trkpt lat="44.39295" lon="4.77592">
        <ele>161.64</ele>
        <time>2017-05-15T10:50:36Z</time>
      </trkpt>
      <trkpt lat="44.39288" lon="4.77594">
        <ele>160.68</ele>
        <time>2017-05-15T10:50:51Z</time>
      </trkpt>
      <trkpt lat="44.39281" lon="4.77595">
        <ele>162.6</ele>
        <time>2017-05-15T10:51:05Z</time>
      </trkpt>
      <trkpt lat="44.3927" lon="4.776">
        <ele>163.56</ele>
        <time>2017-05-15T10:51:23Z</time>
      </trkpt>
      <trkpt lat="44.3926" lon="4.77603">
        <ele>163.08</ele>
        <time>2017-05-15T10:51:36Z</time>
      </trkpt>
      <trkpt lat="44.39248" lon="4.77601">
        <ele>163.08</ele>
        <time>2017-05-15T10:51:52Z</time>
      </trkpt>
      <trkpt lat="44.39237" lon="4.77594">
        <ele>164.04</ele>
        <time>2017-05-15T10:52:07Z</time>
      </trkpt>
      <trkpt lat="44.39225" lon="4.77584">
        <ele>164.04</ele>
        <time>2017-05-15T10:52:22Z</time>
      </trkpt>
      <trkpt lat="44.39208" lon="4.77583">
        <ele>163.56</ele>
        <time>2017-05-15T10:52:38Z</time>
      </trkpt>
      <trkpt lat="44.39197" lon="4.77585">
        <ele>162.6</ele>
        <time>2017-05-15T10:52:47Z</time>
      </trkpt>
      <trkpt lat="44.39179" lon="4.77591">
        <ele>163.56</ele>
        <time>2017-05-15T10:53:05Z</time>
      </trkpt>
      <trkpt lat="44.3917" lon="4.77594">
        <ele>164.04</ele>
        <time>2017-05-15T10:53:22Z</time>
      </trkpt>
      <trkpt lat="44.39165" lon="4.77589">
        <ele>164.04</ele>
        <time>2017-05-15T10:53:37Z</time>
      </trkpt>
      <trkpt lat="44.39159" lon="4.7758">
        <ele>163.08</ele>
        <time>2017-05-15T10:53:47Z</time>
      </trkpt>
      <trkpt lat="44.39152" lon="4.77564">
        <ele>163.08</ele>
        <time>2017-05-15T10:54:03Z</time>
      </trkpt>
      <trkpt lat="44.39144" lon="4.77552">
        <ele>163.08</ele>
        <time>2017-05-15T10:54:18Z</time>
      </trkpt>
      <trkpt lat="44.39139" lon="4.77545">
        <ele>163.08</ele>
        <time>2017-05-15T10:54:29Z</time>
      </trkpt>
      <trkpt lat="44.39132" lon="4.7753">
        <ele>163.08</ele>
        <time>2017-05-15T10:54:43Z</time>
      </trkpt>
      <trkpt lat="44.39125" lon="4.77516">
        <ele>162.6</ele>
        <time>2017-05-15T10:55:00Z</time>
      </trkpt>
      <trkpt lat="44.39117" lon="4.77508">
        <ele>163.56</ele>
        <time>2017-05-15T10:55:17Z</time>
      </trkpt>
      <trkpt lat="44.39115" lon="4.77502">
        <ele>162.12</ele>
        <time>2017-05-15T10:55:35Z</time>
      </trkpt>
      <trkpt lat="44.39113" lon="4.775">
        <ele>163.56</ele>
        <time>2017-05-15T10:55:50Z</time>
      </trkpt>
      <trkpt lat="44.39112" lon="4.775">
        <ele>162.12</ele>
        <time>2017-05-15T10:55:52Z</time>
      </trkpt>
      <trkpt lat="44.391" lon="4.77502">
        <ele>163.08</ele>
        <time>2017-05-15T10:56:11Z</time>
      </trkpt>
      <trkpt lat="44.39089" lon="4.77502">
        <ele>163.08</ele>
        <time>2017-05-15T10:56:26Z</time>
      </trkpt>
      <trkpt lat="44.39079" lon="4.77502">
        <ele>163.08</ele>
        <time>2017-05-15T10:56:41Z</time>
      </trkpt>
      <trkpt lat="44.39065" lon="4.77502">
        <ele>163.08</ele>
        <time>2017-05-15T10:56:57Z</time>
      </trkpt>
      <trkpt lat="44.39051" lon="4.77502">
        <ele>163.08</ele>
        <time>2017-05-15T10:57:13Z</time>
      </trkpt>
      <trkpt lat="44.39042" lon="4.77502">
        <ele>162.6</ele>
        <time>2017-05-15T10:57:25Z</time>
      </trkpt>
      <trkpt lat="44.39033" lon="4.77499">
        <ele>162.12</ele>
        <time>2017-05-15T10:57:39Z</time>
      </trkpt>
      <trkpt lat="44.39026" lon="4.77491">
        <ele>162.12</ele>
        <time>2017-05-15T10:57:51Z</time>
      </trkpt>
      <trkpt lat="44.39016" lon="4.77469">
        <ele>162.12</ele>
        <time>2017-05-15T10:58:09Z</time>
      </trkpt>
      <trkpt lat="44.39009" lon="4.77449">
        <ele>163.08</ele>
        <time>2017-05-15T10:58:25Z</time>
      </trkpt>
      <trkpt lat="44.39002" lon="4.77431">
        <ele>164.04</ele>
        <time>2017-05-15T10:58:40Z</time>
      </trkpt>
      <trkpt lat="44.39" lon="4.77427">
        <ele>163.56</ele>
        <time>2017-05-15T10:58:44Z</time>
      </trkpt>
      <trkpt lat="44.38996" lon="4.7741">
        <ele>163.08</ele>
        <time>2017-05-15T10:58:58Z</time>
      </trkpt>
      <trkpt lat="44.38986" lon="4.77396">
        <ele>164.52</ele>
        <time>2017-05-15T10:59:14Z</time>
      </trkpt>
      <trkpt lat="44.38984" lon="4.77395">
        <ele>164.52</ele>
        <time>2017-05-15T10:59:37Z</time>
      </trkpt>
      <trkpt lat="44.3898" lon="4.77391">
        <ele>165</ele>
        <time>2017-05-15T10:59:49Z</time>
      </trkpt>
      <trkpt lat="44.3897" lon="4.77381">
        <ele>165</ele>
        <time>2017-05-15T11:00:07Z</time>
      </trkpt>
      <trkpt lat="44.38958" lon="4.77375">
        <ele>165</ele>
        <time>2017-05-15T11:00:23Z</time>
      </trkpt>
      <trkpt lat="44.38947" lon="4.77369">
        <ele>165</ele>
        <time>2017-05-15T11:00:44Z</time>
      </trkpt>
      <trkpt lat="44.38941" lon="4.77365">
        <ele>165</ele>
        <time>2017-05-15T11:00:58Z</time>
      </trkpt>
      <trkpt lat="44.38932" lon="4.77356">
        <ele>165.96</ele>
        <time>2017-05-15T11:01:13Z</time>
      </trkpt>
      <trkpt lat="44.38921" lon="4.77345">
        <ele>165.96</ele>
        <time>2017-05-15T11:01:31Z</time>
      </trkpt>
      <trkpt lat="44.38908" lon="4.77332">
        <ele>165.48</ele>
        <time>2017-05-15T11:01:47Z</time>
      </trkpt>
      <trkpt lat="44.38896" lon="4.77316">
        <ele>165.48</ele>
        <time>2017-05-15T11:02:03Z</time>
      </trkpt>
      <trkpt lat="44.38879" lon="4.77299">
        <ele>165.48</ele>
        <time>2017-05-15T11:02:24Z</time>
      </trkpt>
      <trkpt lat="44.38865" lon="4.77283">
        <ele>164.52</ele>
        <time>2017-05-15T11:02:39Z</time>
      </trkpt>
      <trkpt lat="44.3885" lon="4.77269">
        <ele>164.52</ele>
        <time>2017-05-15T11:02:54Z</time>
      </trkpt>
      <trkpt lat="44.38838" lon="4.77242">
        <ele>165</ele>
        <time>2017-05-15T11:03:13Z</time>
      </trkpt>
      <trkpt lat="44.38832" lon="4.77221">
        <ele>164.52</ele>
        <time>2017-05-15T11:03:30Z</time>
      </trkpt>
      <trkpt lat="44.38826" lon="4.77199">
        <ele>164.52</ele>
        <time>2017-05-15T11:03:47Z</time>
      </trkpt>
      <trkpt lat="44.3882" lon="4.7717">
        <ele>164.52</ele>
        <time>2017-05-15T11:04:07Z</time>
      </trkpt>
      <trkpt lat="44.38817" lon="4.77162">
        <ele>164.04</ele>
        <time>2017-05-15T11:04:14Z</time>
      </trkpt>
      <trkpt lat="44.38817" lon="4.77161">
        <ele>164.04</ele>
        <time>2017-05-15T11:04:15Z</time>
      </trkpt>
      <trkpt lat="44.38815" lon="4.77154">
        <ele>166.93</ele>
        <time>2017-05-15T11:04:19Z</time>
      </trkpt>
      <trkpt lat="44.38808" lon="4.77128">
        <ele>164.52</ele>
        <time>2017-05-15T11:04:37Z</time>
      </trkpt>
      <trkpt lat="44.38804" lon="4.77106">
        <ele>164.04</ele>
        <time>2017-05-15T11:04:54Z</time>
      </trkpt>
      <trkpt lat="44.38804" lon="4.771">
        <ele>164.52</ele>
        <time>2017-05-15T11:05:07Z</time>
      </trkpt>
      <trkpt lat="44.38801" lon="4.77093">
        <ele>163.08</ele>
        <time>2017-05-15T11:05:22Z</time>
      </trkpt>
      <trkpt lat="44.38802" lon="4.7709">
        <ele>165.48</ele>
        <time>2017-05-15T11:05:36Z</time>
      </trkpt>
      <trkpt lat="44.38807" lon="4.77085">
        <ele>164.04</ele>
        <time>2017-05-15T11:05:44Z</time>
      </trkpt>
      <trkpt lat="44.38811" lon="4.77081">
        <ele>164.04</ele>
        <time>2017-05-15T11:05:59Z</time>
      </trkpt>
      <trkpt lat="44.38812" lon="4.7708">
        <ele>164.04</ele>
        <time>2017-05-15T11:06:14Z</time>
      </trkpt>
      <trkpt lat="44.38818" lon="4.77072">
        <ele>164.04</ele>
        <time>2017-05-15T11:06:32Z</time>
      </trkpt>
      <trkpt lat="44.38823" lon="4.77069">
        <ele>164.04</ele>
        <time>2017-05-15T11:06:37Z</time>
      </trkpt>
      <trkpt lat="44.38827" lon="4.77065">
        <ele>162.6</ele>
        <time>2017-05-15T11:06:42Z</time>
      </trkpt>
      <trkpt lat="44.38832" lon="4.77052">
        <ele>163.08</ele>
        <time>2017-05-15T11:06:56Z</time>
      </trkpt>
      <trkpt lat="44.38841" lon="4.77035">
        <ele>161.64</ele>
        <time>2017-05-15T11:07:14Z</time>
      </trkpt>
      <trkpt lat="44.38846" lon="4.77016">
        <ele>162.12</ele>
        <time>2017-05-15T11:07:33Z</time>
      </trkpt>
      <trkpt lat="44.38846" lon="4.77009">
        <ele>162.12</ele>
        <time>2017-05-15T11:07:50Z</time>
      </trkpt>
      <trkpt lat="44.38843" lon="4.77009">
        <ele>161.16</ele>
        <time>2017-05-15T11:08:06Z</time>
      </trkpt>
      <trkpt lat="44.38842" lon="4.77011">
        <ele>162.12</ele>
        <time>2017-05-15T11:08:32Z</time>
      </trkpt>
      <trkpt lat="44.38841" lon="4.77013">
        <ele>162.12</ele>
        <time>2017-05-15T11:08:58Z</time>
      </trkpt>
      <trkpt lat="44.38841" lon="4.77014">
        <ele>162.6</ele>
        <time>2017-05-15T11:09:19Z</time>
      </trkpt>
      <trkpt lat="44.38843" lon="4.7701">
        <ele>162.6</ele>
        <time>2017-05-15T11:09:32Z</time>
      </trkpt>
      <trkpt lat="44.38847" lon="4.77007">
        <ele>162.6</ele>
        <time>2017-05-15T11:09:50Z</time>
      </trkpt>
      <trkpt lat="44.38849" lon="4.77006">
        <ele>162.12</ele>
        <time>2017-05-15T11:10:07Z</time>
      </trkpt>
      <trkpt lat="44.3885" lon="4.77007">
        <ele>162.12</ele>
        <time>2017-05-15T11:10:35Z</time>
      </trkpt>
      <trkpt lat="44.38847" lon="4.77012">
        <ele>162.12</ele>
        <time>2017-05-15T11:10:56Z</time>
      </trkpt>
      <trkpt lat="44.3885" lon="4.77008">
        <ele>162.12</ele>
        <time>2017-05-15T11:11:11Z</time>
      </trkpt>
      <trkpt lat="44.38849" lon="4.77004">
        <ele>162.12</ele>
        <time>2017-05-15T11:11:32Z</time>
      </trkpt>
      <trkpt lat="44.38854" lon="4.76998">
        <ele>162.12</ele>
        <time>2017-05-15T11:11:46Z</time>
      </trkpt>
      <trkpt lat="44.38854" lon="4.77001">
        <ele>162.12</ele>
        <time>2017-05-15T11:12:11Z</time>
      </trkpt>
      <trkpt lat="44.38852" lon="4.77004">
        <ele>162.12</ele>
        <time>2017-05-15T11:12:49Z</time>
      </trkpt>
      <trkpt lat="44.38852" lon="4.77002">
        <ele>162.12</ele>
        <time>2017-05-15T11:13:22Z</time>
      </trkpt>
      <trkpt lat="44.38857" lon="4.76994">
        <ele>162.6</ele>
        <time>2017-05-15T11:13:43Z</time>
      </trkpt>
      <trkpt lat="44.38865" lon="4.76976">
        <ele>162.12</ele>
        <time>2017-05-15T11:13:59Z</time>
      </trkpt>
      <trkpt lat="44.38872" lon="4.76964">
        <ele>162.12</ele>
        <time>2017-05-15T11:14:12Z</time>
      </trkpt>
      <trkpt lat="44.3888" lon="4.76947">
        <ele>162.12</ele>
        <time>2017-05-15T11:14:26Z</time>
      </trkpt>
      <trkpt lat="44.38887" lon="4.76933">
        <ele>162.12</ele>
        <time>2017-05-15T11:14:40Z</time>
      </trkpt>
      <trkpt lat="44.38894" lon="4.76913">
        <ele>161.64</ele>
        <time>2017-05-15T11:14:54Z</time>
      </trkpt>
      <trkpt lat="44.38895" lon="4.76896">
        <ele>162.12</ele>
        <time>2017-05-15T11:15:09Z</time>
      </trkpt>
      <trkpt lat="44.38886" lon="4.76884">
        <ele>159.72</ele>
        <time>2017-05-15T11:15:26Z</time>
      </trkpt>
      <trkpt lat="44.38874" lon="4.7688">
        <ele>161.64</ele>
        <time>2017-05-15T11:15:41Z</time>
      </trkpt>
      <trkpt lat="44.38861" lon="4.76874">
        <ele>162.6</ele>
        <time>2017-05-15T11:15:58Z</time>
      </trkpt>
      <trkpt lat="44.38842" lon="4.76863">
        <ele>163.56</ele>
        <time>2017-05-15T11:16:20Z</time>
      </trkpt>
      <trkpt lat="44.38832" lon="4.76843">
        <ele>165</ele>
        <time>2017-05-15T11:16:37Z</time>
      </trkpt>
      <trkpt lat="44.3883" lon="4.76833">
        <ele>165</ele>
        <time>2017-05-15T11:16:44Z</time>
      </trkpt>
      <trkpt lat="44.38827" lon="4.76812">
        <ele>164.04</ele>
        <time>2017-05-15T11:17:00Z</time>
      </trkpt>
      <trkpt lat="44.38818" lon="4.76797">
        <ele>163.56</ele>
        <time>2017-05-15T11:17:17Z</time>
      </trkpt>
      <trkpt lat="44.38814" lon="4.76784">
        <ele>163.56</ele>
        <time>2017-05-15T11:17:31Z</time>
      </trkpt>
      <trkpt lat="44.38814" lon="4.7679">
        <ele>163.56</ele>
        <time>2017-05-15T11:17:45Z</time>
      </trkpt>
      <trkpt lat="44.38811" lon="4.76795">
        <ele>163.08</ele>
        <time>2017-05-15T11:18:02Z</time>
      </trkpt>
      <trkpt lat="44.38811" lon="4.76797">
        <ele>163.08</ele>
        <time>2017-05-15T11:18:27Z</time>
      </trkpt>
      <trkpt lat="44.38809" lon="4.76797">
        <ele>163.08</ele>
        <time>2017-05-15T11:18:44Z</time>
      </trkpt>
      <trkpt lat="44.38809" lon="4.76793">
        <ele>163.08</ele>
        <time>2017-05-15T11:19:06Z</time>
      </trkpt>
      <trkpt lat="44.38814" lon="4.76786">
        <ele>163.08</ele>
        <time>2017-05-15T11:19:20Z</time>
      </trkpt>
      <trkpt lat="44.38817" lon="4.76777">
        <ele>163.08</ele>
        <time>2017-05-15T11:19:34Z</time>
      </trkpt>
      <trkpt lat="44.38817" lon="4.76776">
        <ele>164.04</ele>
        <time>2017-05-15T11:19:36Z</time>
      </trkpt>
      <trkpt lat="44.38816" lon="4.76763">
        <ele>164.04</ele>
        <time>2017-05-15T11:19:52Z</time>
      </trkpt>
      <trkpt lat="44.38813" lon="4.76756">
        <ele>162.6</ele>
        <time>2017-05-15T11:20:05Z</time>
      </trkpt>
      <trkpt lat="44.38813" lon="4.76748">
        <ele>162.6</ele>
        <time>2017-05-15T11:20:20Z</time>
      </trkpt>
      <trkpt lat="44.38816" lon="4.7674">
        <ele>164.04</ele>
        <time>2017-05-15T11:20:34Z</time>
      </trkpt>
      <trkpt lat="44.38819" lon="4.76731">
        <ele>164.04</ele>
        <time>2017-05-15T11:20:50Z</time>
      </trkpt>
      <trkpt lat="44.3882" lon="4.76727">
        <ele>164.04</ele>
        <time>2017-05-15T11:21:07Z</time>
      </trkpt>
      <trkpt lat="44.38823" lon="4.76718">
        <ele>162.6</ele>
        <time>2017-05-15T11:21:17Z</time>
      </trkpt>
      <trkpt lat="44.38826" lon="4.76714">
        <ele>162.6</ele>
        <time>2017-05-15T11:21:23Z</time>
      </trkpt>
      <trkpt lat="44.38834" lon="4.767">
        <ele>162.6</ele>
        <time>2017-05-15T11:21:41Z</time>
      </trkpt>
      <trkpt lat="44.38836" lon="4.76684">
        <ele>161.64</ele>
        <time>2017-05-15T11:21:56Z</time>
      </trkpt>
      <trkpt lat="44.38834" lon="4.76667">
        <ele>161.64</ele>
        <time>2017-05-15T11:22:12Z</time>
      </trkpt>
      <trkpt lat="44.38829" lon="4.76662">
        <ele>159.72</ele>
        <time>2017-05-15T11:22:28Z</time>
      </trkpt>
      <trkpt lat="44.3883" lon="4.76652">
        <ele>159.72</ele>
        <time>2017-05-15T11:22:40Z</time>
      </trkpt>
      <trkpt lat="44.38832" lon="4.76637">
        <ele>162.6</ele>
        <time>2017-05-15T11:22:56Z</time>
      </trkpt>
      <trkpt lat="44.38832" lon="4.76633">
        <ele>162.6</ele>
        <time>2017-05-15T11:23:00Z</time>
      </trkpt>
      <trkpt lat="44.38832" lon="4.76629">
        <ele>161.64</ele>
        <time>2017-05-15T11:23:06Z</time>
      </trkpt>
      <trkpt lat="44.38831" lon="4.76626">
        <ele>161.16</ele>
        <time>2017-05-15T11:23:16Z</time>
      </trkpt>
      <trkpt lat="44.38832" lon="4.76615">
        <ele>161.16</ele>
        <time>2017-05-15T11:23:28Z</time>
      </trkpt>
      <trkpt lat="44.38832" lon="4.76613">
        <ele>162.12</ele>
        <time>2017-05-15T11:23:46Z</time>
      </trkpt>
      <trkpt lat="44.38832" lon="4.76613">
        <ele>160.68</ele>
        <time>2017-05-15T11:23:50Z</time>
      </trkpt>
      <trkpt lat="44.3883" lon="4.76617">
        <ele>161.64</ele>
        <time>2017-05-15T11:24:12Z</time>
      </trkpt>
      <trkpt lat="44.38824" lon="4.76621">
        <ele>161.64</ele>
        <time>2017-05-15T11:24:26Z</time>
      </trkpt>
      <trkpt lat="44.38821" lon="4.76614">
        <ele>161.16</ele>
        <time>2017-05-15T11:24:34Z</time>
      </trkpt>
      <trkpt lat="44.38821" lon="4.76613">
        <ele>164.52</ele>
        <time>2017-05-15T11:24:36Z</time>
      </trkpt>
      <trkpt lat="44.38817" lon="4.76597">
        <ele>161.64</ele>
        <time>2017-05-15T11:24:51Z</time>
      </trkpt>
      <trkpt lat="44.38816" lon="4.7658">
        <ele>161.64</ele>
        <time>2017-05-15T11:25:10Z</time>
      </trkpt>
      <trkpt lat="44.38808" lon="4.76562">
        <ele>160.68</ele>
        <time>2017-05-15T11:25:28Z</time>
      </trkpt>
      <trkpt lat="44.38803" lon="4.76548">
        <ele>160.2</ele>
        <time>2017-05-15T11:25:42Z</time>
      </trkpt>
      <trkpt lat="44.38803" lon="4.76534">
        <ele>160.2</ele>
        <time>2017-05-15T11:25:56Z</time>
      </trkpt>
      <trkpt lat="44.38799" lon="4.7652">
        <ele>159.72</ele>
        <time>2017-05-15T11:26:10Z</time>
      </trkpt>
      <trkpt lat="44.38793" lon="4.76499">
        <ele>159.72</ele>
        <time>2017-05-15T11:26:28Z</time>
      </trkpt>
      <trkpt lat="44.38791" lon="4.76493">
        <ele>159.72</ele>
        <time>2017-05-15T11:26:33Z</time>
      </trkpt>
      <trkpt lat="44.38786" lon="4.76475">
        <ele>159.24</ele>
        <time>2017-05-15T11:26:50Z</time>
      </trkpt>
      <trkpt lat="44.38781" lon="4.76463">
        <ele>158.75</ele>
        <time>2017-05-15T11:27:06Z</time>
      </trkpt>
      <trkpt lat="44.38776" lon="4.76451">
        <ele>157.31</ele>
        <time>2017-05-15T11:27:22Z</time>
      </trkpt>
      <trkpt lat="44.38774" lon="4.76448">
        <ele>156.35</ele>
        <time>2017-05-15T11:27:42Z</time>
      </trkpt>
      <trkpt lat="44.38771" lon="4.76446">
        <ele>160.68</ele>
        <time>2017-05-15T11:27:46Z</time>
      </trkpt>
      <trkpt lat="44.38771" lon="4.76446">
        <ele>156.83</ele>
        <time>2017-05-15T11:27:47Z</time>
      </trkpt>
      <trkpt lat="44.38768" lon="4.76441">
        <ele>155.87</ele>
        <time>2017-05-15T11:28:04Z</time>
      </trkpt>
      <trkpt lat="44.3877" lon="4.76443">
        <ele>157.31</ele>
        <time>2017-05-15T11:28:12Z</time>
      </trkpt>
      <trkpt lat="44.38772" lon="4.76447">
        <ele>157.31</ele>
        <time>2017-05-15T11:28:31Z</time>
      </trkpt>
      <trkpt lat="44.38777" lon="4.76457">
        <ele>159.24</ele>
        <time>2017-05-15T11:28:49Z</time>
      </trkpt>
      <trkpt lat="44.38781" lon="4.76468">
        <ele>159.24</ele>
        <time>2017-05-15T11:29:04Z</time>
      </trkpt>
      <trkpt lat="44.38787" lon="4.76484">
        <ele>160.2</ele>
        <time>2017-05-15T11:29:21Z</time>
      </trkpt>
      <trkpt lat="44.38792" lon="4.76505">
        <ele>161.16</ele>
        <time>2017-05-15T11:29:39Z</time>
      </trkpt>
      <trkpt lat="44.38796" lon="4.76521">
        <ele>161.16</ele>
        <time>2017-05-15T11:29:54Z</time>
      </trkpt>
      <trkpt lat="44.388" lon="4.76537">
        <ele>159.72</ele>
        <time>2017-05-15T11:30:10Z</time>
      </trkpt>
      <trkpt lat="44.388" lon="4.76538">
        <ele>159.72</ele>
        <time>2017-05-15T11:30:11Z</time>
      </trkpt>
      <trkpt lat="44.38804" lon="4.76557">
        <ele>160.68</ele>
        <time>2017-05-15T11:30:29Z</time>
      </trkpt>
      <trkpt lat="44.38812" lon="4.76571">
        <ele>161.16</ele>
        <time>2017-05-15T11:30:44Z</time>
      </trkpt>
      <trkpt lat="44.38815" lon="4.76585">
        <ele>161.64</ele>
        <time>2017-05-15T11:30:59Z</time>
      </trkpt>
      <trkpt lat="44.38818" lon="4.76606">
        <ele>161.64</ele>
        <time>2017-05-15T11:31:19Z</time>
      </trkpt>
      <trkpt lat="44.38826" lon="4.76614">
        <ele>162.12</ele>
        <time>2017-05-15T11:31:34Z</time>
      </trkpt>
      <trkpt lat="44.3883" lon="4.76609">
        <ele>160.68</ele>
        <time>2017-05-15T11:31:43Z</time>
      </trkpt>
      <trkpt lat="44.38833" lon="4.76605">
        <ele>160.2</ele>
        <time>2017-05-15T11:32:00Z</time>
      </trkpt>
      <trkpt lat="44.38834" lon="4.76603">
        <ele>159.24</ele>
        <time>2017-05-15T11:32:04Z</time>
      </trkpt>
      <trkpt lat="44.38836" lon="4.76596">
        <ele>156.35</ele>
        <time>2017-05-15T11:32:20Z</time>
      </trkpt>
      <trkpt lat="44.38834" lon="4.76586">
        <ele>154.91</ele>
        <time>2017-05-15T11:32:39Z</time>
      </trkpt>
      <trkpt lat="44.38832" lon="4.76583">
        <ele>153.95</ele>
        <time>2017-05-15T11:33:01Z</time>
      </trkpt>
      <trkpt lat="44.38832" lon="4.76575">
        <ele>152.99</ele>
        <time>2017-05-15T11:33:16Z</time>
      </trkpt>
      <trkpt lat="44.38834" lon="4.76563">
        <ele>151.54</ele>
        <time>2017-05-15T11:33:30Z</time>
      </trkpt>
      <trkpt lat="44.38837" lon="4.7655">
        <ele>150.58</ele>
        <time>2017-05-15T11:33:44Z</time>
      </trkpt>
      <trkpt lat="44.38836" lon="4.76541">
        <ele>149.14</ele>
        <time>2017-05-15T11:33:56Z</time>
      </trkpt>
      <trkpt lat="44.38835" lon="4.76529">
        <ele>147.22</ele>
        <time>2017-05-15T11:34:09Z</time>
      </trkpt>
      <trkpt lat="44.38836" lon="4.76515">
        <ele>145.78</ele>
        <time>2017-05-15T11:34:24Z</time>
      </trkpt>
      <trkpt lat="44.3884" lon="4.76503">
        <ele>143.85</ele>
        <time>2017-05-15T11:34:40Z</time>
      </trkpt>
      <trkpt lat="44.38845" lon="4.7649">
        <ele>142.41</ele>
        <time>2017-05-15T11:34:54Z</time>
      </trkpt>
      <trkpt lat="44.38846" lon="4.76487">
        <ele>141.45</ele>
        <time>2017-05-15T11:35:14Z</time>
      </trkpt>
      <trkpt lat="44.38844" lon="4.76477">
        <ele>140.97</ele>
        <time>2017-05-15T11:35:27Z</time>
      </trkpt>
      <trkpt lat="44.3884" lon="4.76469">
        <ele>142.41</ele>
        <time>2017-05-15T11:35:41Z</time>
      </trkpt>
      <trkpt lat="44.38836" lon="4.76457">
        <ele>143.85</ele>
        <time>2017-05-15T11:35:55Z</time>
      </trkpt>
      <trkpt lat="44.38829" lon="4.76445">
        <ele>144.34</ele>
        <time>2017-05-15T11:36:10Z</time>
      </trkpt>
      <trkpt lat="44.38821" lon="4.76431">
        <ele>145.3</ele>
        <time>2017-05-15T11:36:26Z</time>
      </trkpt>
      <trkpt lat="44.38811" lon="4.76415">
        <ele>145.3</ele>
        <time>2017-05-15T11:36:44Z</time>
      </trkpt>
      <trkpt lat="44.38808" lon="4.7641">
        <ele>145.3</ele>
        <time>2017-05-15T11:36:49Z</time>
      </trkpt>
      <trkpt lat="44.388" lon="4.76397">
        <ele>145.3</ele>
        <time>2017-05-15T11:37:03Z</time>
      </trkpt>
      <trkpt lat="44.38788" lon="4.76376">
        <ele>145.3</ele>
        <time>2017-05-15T11:37:19Z</time>
      </trkpt>
      <trkpt lat="44.38782" lon="4.7636">
        <ele>145.3</ele>
        <time>2017-05-15T11:37:33Z</time>
      </trkpt>
      <trkpt lat="44.38771" lon="4.76342">
        <ele>146.26</ele>
        <time>2017-05-15T11:37:49Z</time>
      </trkpt>
      <trkpt lat="44.3876" lon="4.76327">
        <ele>147.22</ele>
        <time>2017-05-15T11:38:07Z</time>
      </trkpt>
      <trkpt lat="44.3875" lon="4.76307">
        <ele>147.22</ele>
        <time>2017-05-15T11:38:25Z</time>
      </trkpt>
      <trkpt lat="44.38743" lon="4.76285">
        <ele>149.62</ele>
        <time>2017-05-15T11:38:42Z</time>
      </trkpt>
      <trkpt lat="44.38738" lon="4.76269">
        <ele>147.7</ele>
        <time>2017-05-15T11:38:56Z</time>
      </trkpt>
      <trkpt lat="44.38737" lon="4.76264">
        <ele>147.22</ele>
        <time>2017-05-15T11:39:00Z</time>
      </trkpt>
      <trkpt lat="44.38733" lon="4.76251">
        <ele>147.22</ele>
        <time>2017-05-15T11:39:15Z</time>
      </trkpt>
      <trkpt lat="44.38731" lon="4.7625">
        <ele>149.14</ele>
        <time>2017-05-15T11:39:22Z</time>
      </trkpt>
      <trkpt lat="44.3873" lon="4.7625">
        <ele>147.22</ele>
        <time>2017-05-15T11:39:24Z</time>
      </trkpt>
      <trkpt lat="44.38722" lon="4.7625">
        <ele>147.22</ele>
        <time>2017-05-15T11:39:38Z</time>
      </trkpt>
      <trkpt lat="44.38724" lon="4.7625">
        <ele>146.26</ele>
        <time>2017-05-15T11:40:12Z</time>
      </trkpt>
      <trkpt lat="44.38728" lon="4.76242">
        <ele>147.7</ele>
        <time>2017-05-15T11:40:26Z</time>
      </trkpt>
      <trkpt lat="44.38728" lon="4.76237">
        <ele>146.26</ele>
        <time>2017-05-15T11:40:38Z</time>
      </trkpt>
      <trkpt lat="44.38729" lon="4.76238">
        <ele>146.26</ele>
        <time>2017-05-15T11:41:00Z</time>
      </trkpt>
      <trkpt lat="44.38731" lon="4.76237">
        <ele>146.26</ele>
        <time>2017-05-15T11:41:20Z</time>
      </trkpt>
      <trkpt lat="44.38731" lon="4.76237">
        <ele>147.22</ele>
        <time>2017-05-15T11:41:44Z</time>
      </trkpt>
      <trkpt lat="44.38728" lon="4.7624">
        <ele>147.22</ele>
        <time>2017-05-15T11:42:03Z</time>
      </trkpt>
      <trkpt lat="44.38725" lon="4.76239">
        <ele>146.74</ele>
        <time>2017-05-15T11:42:25Z</time>
      </trkpt>
      <trkpt lat="44.38727" lon="4.76238">
        <ele>147.7</ele>
        <time>2017-05-15T11:42:48Z</time>
      </trkpt>
      <trkpt lat="44.38729" lon="4.76238">
        <ele>147.22</ele>
        <time>2017-05-15T11:43:12Z</time>
      </trkpt>
      <trkpt lat="44.38732" lon="4.76237">
        <ele>147.22</ele>
        <time>2017-05-15T11:43:27Z</time>
      </trkpt>
      <trkpt lat="44.38736" lon="4.76234">
        <ele>145.78</ele>
        <time>2017-05-15T11:43:34Z</time>
      </trkpt>
      <trkpt lat="44.38743" lon="4.76222">
        <ele>143.85</ele>
        <time>2017-05-15T11:43:48Z</time>
      </trkpt>
      <trkpt lat="44.38751" lon="4.76207">
        <ele>140.97</ele>
        <time>2017-05-15T11:44:03Z</time>
      </trkpt>
      <trkpt lat="44.38754" lon="4.76198">
        <ele>140.97</ele>
        <time>2017-05-15T11:44:13Z</time>
      </trkpt>
      <trkpt lat="44.38762" lon="4.76183">
        <ele>138.57</ele>
        <time>2017-05-15T11:44:29Z</time>
      </trkpt>
      <trkpt lat="44.38772" lon="4.76165">
        <ele>137.13</ele>
        <time>2017-05-15T11:44:46Z</time>
      </trkpt>
      <trkpt lat="44.3878" lon="4.76148">
        <ele>136.16</ele>
        <time>2017-05-15T11:45:01Z</time>
      </trkpt>
      <trkpt lat="44.38787" lon="4.76128">
        <ele>135.2</ele>
        <time>2017-05-15T11:45:17Z</time>
      </trkpt>
      <trkpt lat="44.38792" lon="4.76108">
        <ele>134.24</ele>
        <time>2017-05-15T11:45:32Z</time>
      </trkpt>
      <trkpt lat="44.38794" lon="4.76099">
        <ele>133.28</ele>
        <time>2017-05-15T11:45:40Z</time>
      </trkpt>
      <trkpt lat="44.38798" lon="4.76087">
        <ele>133.28</ele>
        <time>2017-05-15T11:45:51Z</time>
      </trkpt>
      <trkpt lat="44.38805" lon="4.76067">
        <ele>131.84</ele>
        <time>2017-05-15T11:46:07Z</time>
      </trkpt>
      <trkpt lat="44.38812" lon="4.76054">
        <ele>131.36</ele>
        <time>2017-05-15T11:46:21Z</time>
      </trkpt>
      <trkpt lat="44.38818" lon="4.76042">
        <ele>128.95</ele>
        <time>2017-05-15T11:46:35Z</time>
      </trkpt>
      <trkpt lat="44.38826" lon="4.76032">
        <ele>127.03</ele>
        <time>2017-05-15T11:46:49Z</time>
      </trkpt>
      <trkpt lat="44.38835" lon="4.76015">
        <ele>125.59</ele>
        <time>2017-05-15T11:47:04Z</time>
      </trkpt>
      <trkpt lat="44.38839" lon="4.76001">
        <ele>124.15</ele>
        <time>2017-05-15T11:47:21Z</time>
      </trkpt>
      <trkpt lat="44.38843" lon="4.75989">
        <ele>122.71</ele>
        <time>2017-05-15T11:47:36Z</time>
      </trkpt>
      <trkpt lat="44.38849" lon="4.75977">
        <ele>120.78</ele>
        <time>2017-05-15T11:47:53Z</time>
      </trkpt>
      <trkpt lat="44.38855" lon="4.75966">
        <ele>118.38</ele>
        <time>2017-05-15T11:48:09Z</time>
      </trkpt>
      <trkpt lat="44.38862" lon="4.75956">
        <ele>116.94</ele>
        <time>2017-05-15T11:48:24Z</time>
      </trkpt>
      <trkpt lat="44.38866" lon="4.75944">
        <ele>115.5</ele>
        <time>2017-05-15T11:48:41Z</time>
      </trkpt>
      <trkpt lat="44.38868" lon="4.75931">
        <ele>113.57</ele>
        <time>2017-05-15T11:48:58Z</time>
      </trkpt>
      <trkpt lat="44.38872" lon="4.75926">
        <ele>112.61</ele>
        <time>2017-05-15T11:49:13Z</time>
      </trkpt>
      <trkpt lat="44.38877" lon="4.75922">
        <ele>111.17</ele>
        <time>2017-05-15T11:49:26Z</time>
      </trkpt>
      <trkpt lat="44.38882" lon="4.75918">
        <ele>109.25</ele>
        <time>2017-05-15T11:49:41Z</time>
      </trkpt>
      <trkpt lat="44.38887" lon="4.75914">
        <ele>107.32</ele>
        <time>2017-05-15T11:49:58Z</time>
      </trkpt>
      <trkpt lat="44.38894" lon="4.75909">
        <ele>105.88</ele>
        <time>2017-05-15T11:50:14Z</time>
      </trkpt>
      <trkpt lat="44.38896" lon="4.75898">
        <ele>104.44</ele>
        <time>2017-05-15T11:50:29Z</time>
      </trkpt>
      <trkpt lat="44.38894" lon="4.75886">
        <ele>101.56</ele>
        <time>2017-05-15T11:50:46Z</time>
      </trkpt>
      <trkpt lat="44.38893" lon="4.75877">
        <ele>100.11</ele>
        <time>2017-05-15T11:51:01Z</time>
      </trkpt>
      <trkpt lat="44.38894" lon="4.75866">
        <ele>100.11</ele>
        <time>2017-05-15T11:51:15Z</time>
      </trkpt>
      <trkpt lat="44.38894" lon="4.75856">
        <ele>98.19</ele>
        <time>2017-05-15T11:51:31Z</time>
      </trkpt>
      <trkpt lat="44.38899" lon="4.75845">
        <ele>96.75</ele>
        <time>2017-05-15T11:51:49Z</time>
      </trkpt>
      <trkpt lat="44.38904" lon="4.75838">
        <ele>95.79</ele>
        <time>2017-05-15T11:52:06Z</time>
      </trkpt>
      <trkpt lat="44.38909" lon="4.75837">
        <ele>92.9</ele>
        <time>2017-05-15T11:52:21Z</time>
      </trkpt>
      <trkpt lat="44.38911" lon="4.75831">
        <ele>92.9</ele>
        <time>2017-05-15T11:52:37Z</time>
      </trkpt>
      <trkpt lat="44.38909" lon="4.75832">
        <ele>92.9</ele>
        <time>2017-05-15T11:52:55Z</time>
      </trkpt>
      <trkpt lat="44.38909" lon="4.75828">
        <ele>93.87</ele>
        <time>2017-05-15T11:53:21Z</time>
      </trkpt>
      <trkpt lat="44.3891" lon="4.75829">
        <ele>93.87</ele>
        <time>2017-05-15T11:53:48Z</time>
      </trkpt>
      <trkpt lat="44.3891" lon="4.75831">
        <ele>92.9</ele>
        <time>2017-05-15T11:54:09Z</time>
      </trkpt>
      <trkpt lat="44.3891" lon="4.75831">
        <ele>96.75</ele>
        <time>2017-05-15T11:54:11Z</time>
      </trkpt>
      <trkpt lat="44.3891" lon="4.75831">
        <ele>93.87</ele>
        <time>2017-05-15T11:54:12Z</time>
      </trkpt>
      <trkpt lat="44.38908" lon="4.75829">
        <ele>92.9</ele>
        <time>2017-05-15T11:54:33Z</time>
      </trkpt>
      <trkpt lat="44.38906" lon="4.75814">
        <ele>91.94</ele>
        <time>2017-05-15T11:54:50Z</time>
      </trkpt>
      <trkpt lat="44.38906" lon="4.75803">
        <ele>91.46</ele>
        <time>2017-05-15T11:55:05Z</time>
      </trkpt>
      <trkpt lat="44.38905" lon="4.75802">
        <ele>92.42</ele>
        <time>2017-05-15T11:55:16Z</time>
      </trkpt>
      <trkpt lat="44.38909" lon="4.75795">
        <ele>92.42</ele>
        <time>2017-05-15T11:55:36Z</time>
      </trkpt>
      <trkpt lat="44.38907" lon="4.75781">
        <ele>92.42</ele>
        <time>2017-05-15T11:55:51Z</time>
      </trkpt>
      <trkpt lat="44.38898" lon="4.75765">
        <ele>91.46</ele>
        <time>2017-05-15T11:56:10Z</time>
      </trkpt>
      <trkpt lat="44.38892" lon="4.75746">
        <ele>91.94</ele>
        <time>2017-05-15T11:56:28Z</time>
      </trkpt>
      <trkpt lat="44.38886" lon="4.75725">
        <ele>90.5</ele>
        <time>2017-05-15T11:56:44Z</time>
      </trkpt>
      <trkpt lat="44.38878" lon="4.75698">
        <ele>90.5</ele>
        <time>2017-05-15T11:57:03Z</time>
      </trkpt>
      <trkpt lat="44.38874" lon="4.75674">
        <ele>89.54</ele>
        <time>2017-05-15T11:57:22Z</time>
      </trkpt>
      <trkpt lat="44.38875" lon="4.75652">
        <ele>89.54</ele>
        <time>2017-05-15T11:57:38Z</time>
      </trkpt>
      <trkpt lat="44.38876" lon="4.7563">
        <ele>89.06</ele>
        <time>2017-05-15T11:57:53Z</time>
      </trkpt>
      <trkpt lat="44.38875" lon="4.75611">
        <ele>88.58</ele>
        <time>2017-05-15T11:58:09Z</time>
      </trkpt>
      <trkpt lat="44.38868" lon="4.7559">
        <ele>88.1</ele>
        <time>2017-05-15T11:58:26Z</time>
      </trkpt>
      <trkpt lat="44.38858" lon="4.75568">
        <ele>88.1</ele>
        <time>2017-05-15T11:58:44Z</time>
      </trkpt>
      <trkpt lat="44.38849" lon="4.75558">
        <ele>87.62</ele>
        <time>2017-05-15T11:58:55Z</time>
      </trkpt>
      <trkpt lat="44.38829" lon="4.75544">
        <ele>86.66</ele>
        <time>2017-05-15T11:59:14Z</time>
      </trkpt>
      <trkpt lat="44.38816" lon="4.75536">
        <ele>85.21</ele>
        <time>2017-05-15T11:59:33Z</time>
      </trkpt>
      <trkpt lat="44.38801" lon="4.75525">
        <ele>84.25</ele>
        <time>2017-05-15T11:59:52Z</time>
      </trkpt>
      <trkpt lat="44.38795" lon="4.75519">
        <ele>85.69</ele>
        <time>2017-05-15T12:00:00Z</time>
      </trkpt>
      <trkpt lat="44.38783" lon="4.75506">
        <ele>84.25</ele>
        <time>2017-05-15T12:00:15Z</time>
      </trkpt>
      <trkpt lat="44.38763" lon="4.75489">
        <ele>81.85</ele>
        <time>2017-05-15T12:00:33Z</time>
      </trkpt>
      <trkpt lat="44.38749" lon="4.75472">
        <ele>80.41</ele>
        <time>2017-05-15T12:00:51Z</time>
      </trkpt>
      <trkpt lat="44.3874" lon="4.75463">
        <ele>80.41</ele>
        <time>2017-05-15T12:01:01Z</time>
      </trkpt>
      <trkpt lat="44.38725" lon="4.75449">
        <ele>79.93</ele>
        <time>2017-05-15T12:01:18Z</time>
      </trkpt>
      <trkpt lat="44.38703" lon="4.75429">
        <ele>78</ele>
        <time>2017-05-15T12:01:41Z</time>
      </trkpt>
      <trkpt lat="44.38682" lon="4.75408">
        <ele>78</ele>
        <time>2017-05-15T12:02:05Z</time>
      </trkpt>
      <trkpt lat="44.38683" lon="4.75396">
        <ele>77.04</ele>
        <time>2017-05-15T12:02:14Z</time>
      </trkpt>
      <trkpt lat="44.38687" lon="4.75378">
        <ele>76.08</ele>
        <time>2017-05-15T12:02:29Z</time>
      </trkpt>
      <trkpt lat="44.38693" lon="4.75355">
        <ele>74.64</ele>
        <time>2017-05-15T12:02:47Z</time>
      </trkpt>
      <trkpt lat="44.38699" lon="4.75337">
        <ele>74.16</ele>
        <time>2017-05-15T12:03:02Z</time>
      </trkpt>
      <trkpt lat="44.38712" lon="4.75311">
        <ele>72.72</ele>
        <time>2017-05-15T12:03:21Z</time>
      </trkpt>
      <trkpt lat="44.38723" lon="4.753">
        <ele>73.2</ele>
        <time>2017-05-15T12:03:33Z</time>
      </trkpt>
      <trkpt lat="44.38742" lon="4.75288">
        <ele>73.2</ele>
        <time>2017-05-15T12:03:52Z</time>
      </trkpt>
      <trkpt lat="44.3876" lon="4.75279">
        <ele>73.2</ele>
        <time>2017-05-15T12:04:10Z</time>
      </trkpt>
      <trkpt lat="44.38763" lon="4.75277">
        <ele>71.76</ele>
        <time>2017-05-15T12:04:14Z</time>
      </trkpt>
      <trkpt lat="44.38785" lon="4.75264">
        <ele>75.12</ele>
        <time>2017-05-15T12:04:34Z</time>
      </trkpt>
      <trkpt lat="44.38803" lon="4.75254">
        <ele>76.08</ele>
        <time>2017-05-15T12:04:52Z</time>
      </trkpt>
      <trkpt lat="44.38814" lon="4.75246">
        <ele>77.52</ele>
        <time>2017-05-15T12:05:07Z</time>
      </trkpt>
      <trkpt lat="44.38832" lon="4.75233">
        <ele>79.93</ele>
        <time>2017-05-15T12:05:28Z</time>
      </trkpt>
      <trkpt lat="44.38834" lon="4.75217">
        <ele>81.85</ele>
        <time>2017-05-15T12:05:45Z</time>
      </trkpt>
      <trkpt lat="44.38831" lon="4.75209">
        <ele>82.81</ele>
        <time>2017-05-15T12:06:03Z</time>
      </trkpt>
      <trkpt lat="44.3884" lon="4.75205">
        <ele>83.77</ele>
        <time>2017-05-15T12:06:19Z</time>
      </trkpt>
      <trkpt lat="44.38856" lon="4.75216">
        <ele>84.25</ele>
        <time>2017-05-15T12:06:39Z</time>
      </trkpt>
      <trkpt lat="44.38872" lon="4.75231">
        <ele>86.66</ele>
        <time>2017-05-15T12:07:00Z</time>
      </trkpt>
      <trkpt lat="44.38883" lon="4.75236">
        <ele>88.58</ele>
        <time>2017-05-15T12:07:17Z</time>
      </trkpt>
      <trkpt lat="44.38882" lon="4.75228">
        <ele>89.54</ele>
        <time>2017-05-15T12:07:28Z</time>
      </trkpt>
      <trkpt lat="44.38886" lon="4.75211">
        <ele>91.46</ele>
        <time>2017-05-15T12:07:45Z</time>
      </trkpt>
      <trkpt lat="44.38896" lon="4.75213">
        <ele>92.42</ele>
        <time>2017-05-15T12:07:59Z</time>
      </trkpt>
      <trkpt lat="44.38909" lon="4.75213">
        <ele>94.83</ele>
        <time>2017-05-15T12:08:15Z</time>
      </trkpt>
      <trkpt lat="44.38919" lon="4.75215">
        <ele>96.27</ele>
        <time>2017-05-15T12:08:32Z</time>
      </trkpt>
      <trkpt lat="44.38929" lon="4.75218">
        <ele>97.71</ele>
        <time>2017-05-15T12:08:49Z</time>
      </trkpt>
      <trkpt lat="44.3894" lon="4.75219">
        <ele>101.08</ele>
        <time>2017-05-15T12:09:07Z</time>
      </trkpt>
      <trkpt lat="44.38955" lon="4.75229">
        <ele>103.48</ele>
        <time>2017-05-15T12:09:27Z</time>
      </trkpt>
      <trkpt lat="44.38963" lon="4.75238">
        <ele>104.92</ele>
        <time>2017-05-15T12:09:44Z</time>
      </trkpt>
      <trkpt lat="44.38972" lon="4.75246">
        <ele>108.29</ele>
        <time>2017-05-15T12:10:03Z</time>
      </trkpt>
      <trkpt lat="44.38983" lon="4.75255">
        <ele>110.69</ele>
        <time>2017-05-15T12:10:20Z</time>
      </trkpt>
      <trkpt lat="44.38989" lon="4.75257">
        <ele>113.09</ele>
        <time>2017-05-15T12:10:36Z</time>
      </trkpt>
      <trkpt lat="44.38994" lon="4.75258">
        <ele>115.01</ele>
        <time>2017-05-15T12:10:52Z</time>
      </trkpt>
      <trkpt lat="44.39" lon="4.75258">
        <ele>117.42</ele>
        <time>2017-05-15T12:11:10Z</time>
      </trkpt>
      <trkpt lat="44.39005" lon="4.75259">
        <ele>119.82</ele>
        <time>2017-05-15T12:11:27Z</time>
      </trkpt>
      <trkpt lat="44.39008" lon="4.75265">
        <ele>121.74</ele>
        <time>2017-05-15T12:11:43Z</time>
      </trkpt>
      <trkpt lat="44.39008" lon="4.75264">
        <ele>122.22</ele>
        <time>2017-05-15T12:12:00Z</time>
      </trkpt>
      <trkpt lat="44.39008" lon="4.75264">
        <ele>121.26</ele>
        <time>2017-05-15T12:12:09Z</time>
      </trkpt>
      <trkpt lat="44.39009" lon="4.75264">
        <ele>120.78</ele>
        <time>2017-05-15T12:12:27Z</time>
      </trkpt>
      <trkpt lat="44.3901" lon="4.75265">
        <ele>120.78</ele>
        <time>2017-05-15T12:12:49Z</time>
      </trkpt>
      <trkpt lat="44.3901" lon="4.75264">
        <ele>121.74</ele>
        <time>2017-05-15T12:13:01Z</time>
      </trkpt>
      <trkpt lat="44.39012" lon="4.75263">
        <ele>125.59</ele>
        <time>2017-05-15T12:13:14Z</time>
      </trkpt>
      <trkpt lat="44.39015" lon="4.75261">
        <ele>122.22</ele>
        <time>2017-05-15T12:13:23Z</time>
      </trkpt>
      <trkpt lat="44.3902" lon="4.75256">
        <ele>122.22</ele>
        <time>2017-05-15T12:13:31Z</time>
      </trkpt>
      <trkpt lat="44.39026" lon="4.75253">
        <ele>124.15</ele>
        <time>2017-05-15T12:13:39Z</time>
      </trkpt>
      <trkpt lat="44.39043" lon="4.7525">
        <ele>125.11</ele>
        <time>2017-05-15T12:13:57Z</time>
      </trkpt>
      <trkpt lat="44.39058" lon="4.7525">
        <ele>127.03</ele>
        <time>2017-05-15T12:14:15Z</time>
      </trkpt>
      <trkpt lat="44.39073" lon="4.75249">
        <ele>128.95</ele>
        <time>2017-05-15T12:14:33Z</time>
      </trkpt>
      <trkpt lat="44.39085" lon="4.75248">
        <ele>129.43</ele>
        <time>2017-05-15T12:14:48Z</time>
      </trkpt>
      <trkpt lat="44.39103" lon="4.75252">
        <ele>131.36</ele>
        <time>2017-05-15T12:15:05Z</time>
      </trkpt>
      <trkpt lat="44.39111" lon="4.75258">
        <ele>131.84</ele>
        <time>2017-05-15T12:15:15Z</time>
      </trkpt>
      <trkpt lat="44.39121" lon="4.75273">
        <ele>134.24</ele>
        <time>2017-05-15T12:15:32Z</time>
      </trkpt>
      <trkpt lat="44.3913" lon="4.75277">
        <ele>137.61</ele>
        <time>2017-05-15T12:15:47Z</time>
      </trkpt>
      <trkpt lat="44.3914" lon="4.75277">
        <ele>140.01</ele>
        <time>2017-05-15T12:16:02Z</time>
      </trkpt>
      <trkpt lat="44.39153" lon="4.75278">
        <ele>142.89</ele>
        <time>2017-05-15T12:16:18Z</time>
      </trkpt>
      <trkpt lat="44.39166" lon="4.75279">
        <ele>145.78</ele>
        <time>2017-05-15T12:16:34Z</time>
      </trkpt>
      <trkpt lat="44.39172" lon="4.75293">
        <ele>147.22</ele>
        <time>2017-05-15T12:16:49Z</time>
      </trkpt>
      <trkpt lat="44.39174" lon="4.75302">
        <ele>148.66</ele>
        <time>2017-05-15T12:17:03Z</time>
      </trkpt>
      <trkpt lat="44.39174" lon="4.75304">
        <ele>145.3</ele>
        <time>2017-05-15T12:17:22Z</time>
      </trkpt>
      <trkpt lat="44.39174" lon="4.75304">
        <ele>150.58</ele>
        <time>2017-05-15T12:17:23Z</time>
      </trkpt>
      <trkpt lat="44.39173" lon="4.75306">
        <ele>148.18</ele>
        <time>2017-05-15T12:17:39Z</time>
      </trkpt>
      <trkpt lat="44.39174" lon="4.75302">
        <ele>147.7</ele>
        <time>2017-05-15T12:18:06Z</time>
      </trkpt>
      <trkpt lat="44.39173" lon="4.75301">
        <ele>147.7</ele>
        <time>2017-05-15T12:18:27Z</time>
      </trkpt>
      <trkpt lat="44.39177" lon="4.75312">
        <ele>147.7</ele>
        <time>2017-05-15T12:18:44Z</time>
      </trkpt>
      <trkpt lat="44.39183" lon="4.75333">
        <ele>149.14</ele>
        <time>2017-05-15T12:19:03Z</time>
      </trkpt>
      <trkpt lat="44.39193" lon="4.75353">
        <ele>150.1</ele>
        <time>2017-05-15T12:19:23Z</time>
      </trkpt>
      <trkpt lat="44.39203" lon="4.75367">
        <ele>152.03</ele>
        <time>2017-05-15T12:19:39Z</time>
      </trkpt>
      <trkpt lat="44.39217" lon="4.75382">
        <ele>152.99</ele>
        <time>2017-05-15T12:19:59Z</time>
      </trkpt>
      <trkpt lat="44.39227" lon="4.75378">
        <ele>154.91</ele>
        <time>2017-05-15T12:20:14Z</time>
      </trkpt>
      <trkpt lat="44.39237" lon="4.75373">
        <ele>157.79</ele>
        <time>2017-05-15T12:20:30Z</time>
      </trkpt>
      <trkpt lat="44.39249" lon="4.75382">
        <ele>160.2</ele>
        <time>2017-05-15T12:20:46Z</time>
      </trkpt>
      <trkpt lat="44.39257" lon="4.75385">
        <ele>162.6</ele>
        <time>2017-05-15T12:21:01Z</time>
      </trkpt>
      <trkpt lat="44.39262" lon="4.75395">
        <ele>164.04</ele>
        <time>2017-05-15T12:21:15Z</time>
      </trkpt>
      <trkpt lat="44.39263" lon="4.75398">
        <ele>165</ele>
        <time>2017-05-15T12:21:32Z</time>
      </trkpt>
      <trkpt lat="44.39261" lon="4.75397">
        <ele>165</ele>
        <time>2017-05-15T12:21:47Z</time>
      </trkpt>
      <trkpt lat="44.39263" lon="4.7539">
        <ele>165.48</ele>
        <time>2017-05-15T12:22:03Z</time>
      </trkpt>
      <trkpt lat="44.39262" lon="4.75386">
        <ele>165.96</ele>
        <time>2017-05-15T12:22:22Z</time>
      </trkpt>
      <trkpt lat="44.39259" lon="4.75385">
        <ele>165.96</ele>
        <time>2017-05-15T12:22:46Z</time>
      </trkpt>
      <trkpt lat="44.39266" lon="4.75382">
        <ele>166.45</ele>
        <time>2017-05-15T12:23:00Z</time>
      </trkpt>
      <trkpt lat="44.39275" lon="4.75377">
        <ele>168.37</ele>
        <time>2017-05-15T12:23:17Z</time>
      </trkpt>
      <trkpt lat="44.39284" lon="4.7537">
        <ele>169.81</ele>
        <time>2017-05-15T12:23:32Z</time>
      </trkpt>
      <trkpt lat="44.39294" lon="4.75358">
        <ele>169.81</ele>
        <time>2017-05-15T12:23:51Z</time>
      </trkpt>
      <trkpt lat="44.39298" lon="4.75342">
        <ele>169.81</ele>
        <time>2017-05-15T12:24:07Z</time>
      </trkpt>
      <trkpt lat="44.39294" lon="4.75327">
        <ele>169.81</ele>
        <time>2017-05-15T12:24:23Z</time>
      </trkpt>
      <trkpt lat="44.39293" lon="4.75319">
        <ele>169.81</ele>
        <time>2017-05-15T12:24:43Z</time>
      </trkpt>
      <trkpt lat="44.39295" lon="4.75317">
        <ele>166.45</ele>
        <time>2017-05-15T12:24:55Z</time>
      </trkpt>
      <trkpt lat="44.39294" lon="4.75318">
        <ele>166.45</ele>
        <time>2017-05-15T12:24:56Z</time>
      </trkpt>
      <trkpt lat="44.39293" lon="4.75317">
        <ele>170.29</ele>
        <time>2017-05-15T12:24:58Z</time>
      </trkpt>
      <trkpt lat="44.39295" lon="4.75324">
        <ele>169.81</ele>
        <time>2017-05-15T12:25:21Z</time>
      </trkpt>
      <trkpt lat="44.39278" lon="4.75323">
        <ele>169.81</ele>
        <time>2017-05-15T12:25:41Z</time>
      </trkpt>
      <trkpt lat="44.39274" lon="4.75323">
        <ele>168.85</ele>
        <time>2017-05-15T12:25:47Z</time>
      </trkpt>
      <trkpt lat="44.3927" lon="4.75316">
        <ele>170.29</ele>
        <time>2017-05-15T12:25:57Z</time>
      </trkpt>
      <trkpt lat="44.39268" lon="4.7531">
        <ele>168.85</ele>
        <time>2017-05-15T12:26:01Z</time>
      </trkpt>
      <trkpt lat="44.39264" lon="4.75288">
        <ele>168.37</ele>
        <time>2017-05-15T12:26:20Z</time>
      </trkpt>
      <trkpt lat="44.39262" lon="4.75271">
        <ele>168.37</ele>
        <time>2017-05-15T12:26:36Z</time>
      </trkpt>
      <trkpt lat="44.39261" lon="4.75254">
        <ele>168.37</ele>
        <time>2017-05-15T12:26:52Z</time>
      </trkpt>
      <trkpt lat="44.39266" lon="4.75237">
        <ele>167.89</ele>
        <time>2017-05-15T12:27:07Z</time>
      </trkpt>
      <trkpt lat="44.39276" lon="4.75235">
        <ele>167.89</ele>
        <time>2017-05-15T12:27:25Z</time>
      </trkpt>
      <trkpt lat="44.39282" lon="4.75237">
        <ele>167.41</ele>
        <time>2017-05-15T12:27:42Z</time>
      </trkpt>
      <trkpt lat="44.39285" lon="4.75236">
        <ele>167.41</ele>
        <time>2017-05-15T12:27:46Z</time>
      </trkpt>
      <trkpt lat="44.39293" lon="4.75229">
        <ele>168.85</ele>
        <time>2017-05-15T12:28:01Z</time>
      </trkpt>
      <trkpt lat="44.39293" lon="4.75226">
        <ele>168.85</ele>
        <time>2017-05-15T12:28:21Z</time>
      </trkpt>
      <trkpt lat="44.39294" lon="4.75225">
        <ele>168.85</ele>
        <time>2017-05-15T12:28:30Z</time>
      </trkpt>
      <trkpt lat="44.39295" lon="4.75226">
        <ele>167.89</ele>
        <time>2017-05-15T12:28:46Z</time>
      </trkpt>
      <trkpt lat="44.39296" lon="4.75227">
        <ele>169.33</ele>
        <time>2017-05-15T12:28:49Z</time>
      </trkpt>
      <trkpt lat="44.39295" lon="4.75225">
        <ele>169.33</ele>
        <time>2017-05-15T12:29:17Z</time>
      </trkpt>
      <trkpt lat="44.39295" lon="4.75226">
        <ele>167.89</ele>
        <time>2017-05-15T12:29:24Z</time>
      </trkpt>
      <trkpt lat="44.39298" lon="4.75225">
        <ele>167.89</ele>
        <time>2017-05-15T12:29:58Z</time>
      </trkpt>
      <trkpt lat="44.39296" lon="4.75226">
        <ele>162.6</ele>
        <time>2017-05-15T12:30:04Z</time>
      </trkpt>
      <trkpt lat="44.39296" lon="4.75227">
        <ele>171.25</ele>
        <time>2017-05-15T12:30:05Z</time>
      </trkpt>
      <trkpt lat="44.39295" lon="4.75227">
        <ele>161.64</ele>
        <time>2017-05-15T12:30:06Z</time>
      </trkpt>
      <trkpt lat="44.39293" lon="4.75225">
        <ele>166.93</ele>
        <time>2017-05-15T12:30:08Z</time>
      </trkpt>
      <trkpt lat="44.39294" lon="4.75227">
        <ele>170.29</ele>
        <time>2017-05-15T12:30:12Z</time>
      </trkpt>
      <trkpt lat="44.39294" lon="4.75227">
        <ele>168.37</ele>
        <time>2017-05-15T12:30:13Z</time>
      </trkpt>
      <trkpt lat="44.39293" lon="4.75225">
        <ele>174.14</ele>
        <time>2017-05-15T12:30:15Z</time>
      </trkpt>
      <trkpt lat="44.39293" lon="4.75224">
        <ele>168.37</ele>
        <time>2017-05-15T12:30:16Z</time>
      </trkpt>
      <trkpt lat="44.39294" lon="4.75225">
        <ele>167.41</ele>
        <time>2017-05-15T12:30:35Z</time>
      </trkpt>
      <trkpt lat="44.39294" lon="4.75225">
        <ele>168.85</ele>
        <time>2017-05-15T12:30:56Z</time>
      </trkpt>
      <trkpt lat="44.39295" lon="4.75228">
        <ele>167.89</ele>
        <time>2017-05-15T12:31:11Z</time>
      </trkpt>
      <trkpt lat="44.39299" lon="4.75229">
        <ele>169.33</ele>
        <time>2017-05-15T12:31:29Z</time>
      </trkpt>
      <trkpt lat="44.39296" lon="4.75227">
        <ele>169.33</ele>
        <time>2017-05-15T12:31:50Z</time>
      </trkpt>
      <trkpt lat="44.39296" lon="4.75226">
        <ele>163.08</ele>
        <time>2017-05-15T12:31:55Z</time>
      </trkpt>
      <trkpt lat="44.39297" lon="4.75226">
        <ele>175.1</ele>
        <time>2017-05-15T12:31:56Z</time>
      </trkpt>
      <trkpt lat="44.39298" lon="4.75226">
        <ele>169.81</ele>
        <time>2017-05-15T12:31:57Z</time>
      </trkpt>
      <trkpt lat="44.39296" lon="4.75229">
        <ele>169.81</ele>
        <time>2017-05-15T12:32:10Z</time>
      </trkpt>
      <trkpt lat="44.39294" lon="4.75227">
        <ele>169.81</ele>
        <time>2017-05-15T12:32:27Z</time>
      </trkpt>
      <trkpt lat="44.39293" lon="4.75228">
        <ele>170.29</ele>
        <time>2017-05-15T12:32:56Z</time>
      </trkpt>
      <trkpt lat="44.39293" lon="4.75232">
        <ele>170.29</ele>
        <time>2017-05-15T12:33:16Z</time>
      </trkpt>
      <trkpt lat="44.39296" lon="4.75249">
        <ele>170.77</ele>
        <time>2017-05-15T12:33:33Z</time>
      </trkpt>
      <trkpt lat="44.39297" lon="4.75258">
        <ele>172.21</ele>
        <time>2017-05-15T12:33:49Z</time>
      </trkpt>
      <trkpt lat="44.393" lon="4.75269">
        <ele>173.17</ele>
        <time>2017-05-15T12:34:04Z</time>
      </trkpt>
      <trkpt lat="44.39306" lon="4.75276">
        <ele>173.66</ele>
        <time>2017-05-15T12:34:20Z</time>
      </trkpt>
      <trkpt lat="44.39307" lon="4.75277">
        <ele>172.21</ele>
        <time>2017-05-15T12:34:22Z</time>
      </trkpt>
      <trkpt lat="44.39314" lon="4.75277">
        <ele>173.66</ele>
        <time>2017-05-15T12:34:38Z</time>
      </trkpt>
      <trkpt lat="44.39316" lon="4.75279">
        <ele>171.25</ele>
        <time>2017-05-15T12:34:41Z</time>
      </trkpt>
      <trkpt lat="44.39318" lon="4.7528">
        <ele>173.66</ele>
        <time>2017-05-15T12:34:44Z</time>
      </trkpt>
      <trkpt lat="44.39322" lon="4.75281">
        <ele>174.14</ele>
        <time>2017-05-15T12:34:59Z</time>
      </trkpt>
      <trkpt lat="44.39324" lon="4.75284">
        <ele>175.58</ele>
        <time>2017-05-15T12:35:16Z</time>
      </trkpt>
      <trkpt lat="44.39325" lon="4.75284">
        <ele>174.14</ele>
        <time>2017-05-15T12:35:18Z</time>
      </trkpt>
      <trkpt lat="44.39328" lon="4.75284">
        <ele>173.17</ele>
        <time>2017-05-15T12:35:23Z</time>
      </trkpt>
      <trkpt lat="44.39337" lon="4.75283">
        <ele>171.73</ele>
        <time>2017-05-15T12:35:39Z</time>
      </trkpt>
      <trkpt lat="44.39344" lon="4.75278">
        <ele>171.25</ele>
        <time>2017-05-15T12:35:59Z</time>
      </trkpt>
      <trkpt lat="44.39359" lon="4.75285">
        <ele>169.81</ele>
        <time>2017-05-15T12:36:21Z</time>
      </trkpt>
      <trkpt lat="44.39369" lon="4.75281">
        <ele>168.37</ele>
        <time>2017-05-15T12:36:37Z</time>
      </trkpt>
      <trkpt lat="44.39373" lon="4.75283">
        <ele>167.41</ele>
        <time>2017-05-15T12:36:45Z</time>
      </trkpt>
      <trkpt lat="44.39381" lon="4.75294">
        <ele>166.45</ele>
        <time>2017-05-15T12:36:59Z</time>
      </trkpt>
      <trkpt lat="44.39383" lon="4.75299">
        <ele>167.89</ele>
        <time>2017-05-15T12:37:03Z</time>
      </trkpt>
      <trkpt lat="44.3939" lon="4.75308">
        <ele>168.37</ele>
        <time>2017-05-15T12:37:17Z</time>
      </trkpt>
      <trkpt lat="44.39401" lon="4.75322">
        <ele>170.29</ele>
        <time>2017-05-15T12:37:37Z</time>
      </trkpt>
      <trkpt lat="44.39406" lon="4.75327">
        <ele>170.77</ele>
        <time>2017-05-15T12:37:52Z</time>
      </trkpt>
      <trkpt lat="44.39412" lon="4.75342">
        <ele>170.29</ele>
        <time>2017-05-15T12:38:09Z</time>
      </trkpt>
      <trkpt lat="44.39414" lon="4.75349">
        <ele>172.21</ele>
        <time>2017-05-15T12:38:16Z</time>
      </trkpt>
      <trkpt lat="44.39413" lon="4.75356">
        <ele>173.66</ele>
        <time>2017-05-15T12:38:21Z</time>
      </trkpt>
      <trkpt lat="44.39412" lon="4.75358">
        <ele>172.21</ele>
        <time>2017-05-15T12:38:23Z</time>
      </trkpt>
      <trkpt lat="44.39412" lon="4.75362">
        <ele>175.1</ele>
        <time>2017-05-15T12:38:26Z</time>
      </trkpt>
      <trkpt lat="44.39412" lon="4.75366">
        <ele>174.14</ele>
        <time>2017-05-15T12:38:29Z</time>
      </trkpt>
      <trkpt lat="44.39413" lon="4.75389">
        <ele>174.14</ele>
        <time>2017-05-15T12:38:49Z</time>
      </trkpt>
      <trkpt lat="44.39417" lon="4.754">
        <ele>176.06</ele>
        <time>2017-05-15T12:38:59Z</time>
      </trkpt>
      <trkpt lat="44.39418" lon="4.7542">
        <ele>176.06</ele>
        <time>2017-05-15T12:39:18Z</time>
      </trkpt>
      <trkpt lat="44.39425" lon="4.75434">
        <ele>176.06</ele>
        <time>2017-05-15T12:39:35Z</time>
      </trkpt>
      <trkpt lat="44.39427" lon="4.75434">
        <ele>176.06</ele>
        <time>2017-05-15T12:39:59Z</time>
      </trkpt>
      <trkpt lat="44.39427" lon="4.75433">
        <ele>176.06</ele>
        <time>2017-05-15T12:40:02Z</time>
      </trkpt>
      <trkpt lat="44.39425" lon="4.7543">
        <ele>177.98</ele>
        <time>2017-05-15T12:40:04Z</time>
      </trkpt>
    </trkseg>
  </trk>
</gpx>